<?xml version="1.0" encoding="UTF-8" standalone="no" ?>
<gpx xmlns="http://www.topografix.com/GPX/1/1" xmlns:xsi="http://www.w3.org/2001/XMLSchema-instance" xsi:schemaLocation="http://www.topografix.com/GPX/1/1 http://www.topografix.com/GPX/1/1/gpx.xsd" version="1.1" creator="VisuGPX - https://www.visugpx.com">
  <metadata>
    <name>bievres verrieres</name>
    <desc><![CDATA[AVF Antony, randonnee pédestre
Bievres Verrieres]]></desc>
  </metadata>
  <trk>
    <name><![CDATA[Track 047]]></name>
    <desc><![CDATA[7 févr. 2017  1:43 pm]]></desc>
    <trkseg>
      <trkpt lat="48.75612" lon="2.21412">
        <ele>111.429</ele>
        <time>2017-02-07T12:43:51.000Z</time>
      </trkpt>
      <trkpt lat="48.75613" lon="2.21412">
        <ele>111.44</ele>
        <time>2017-02-07T12:43:51.586Z</time>
      </trkpt>
      <trkpt lat="48.75621" lon="2.21418">
        <ele>111.583</ele>
        <time>2017-02-07T12:44:02.509Z</time>
      </trkpt>
      <trkpt lat="48.7563" lon="2.21417">
        <ele>112.043</ele>
        <time>2017-02-07T12:44:11.072Z</time>
      </trkpt>
      <trkpt lat="48.75638" lon="2.21425">
        <ele>112.926</ele>
        <time>2017-02-07T12:44:19.163Z</time>
      </trkpt>
      <trkpt lat="48.75646" lon="2.21432">
        <ele>114.072</ele>
        <time>2017-02-07T12:44:27.791Z</time>
      </trkpt>
      <trkpt lat="48.75656" lon="2.21437">
        <ele>115.311</ele>
        <time>2017-02-07T12:44:36.194Z</time>
      </trkpt>
      <trkpt lat="48.75664" lon="2.21441">
        <ele>116.642</ele>
        <time>2017-02-07T12:44:44.031Z</time>
      </trkpt>
      <trkpt lat="48.75673" lon="2.21439">
        <ele>118.183</ele>
        <time>2017-02-07T12:44:53.860Z</time>
      </trkpt>
      <trkpt lat="48.75682" lon="2.21433">
        <ele>120.016</ele>
        <time>2017-02-07T12:45:03.918Z</time>
      </trkpt>
      <trkpt lat="48.75691" lon="2.21427">
        <ele>121.883</ele>
        <time>2017-02-07T12:45:12.742Z</time>
      </trkpt>
      <trkpt lat="48.757" lon="2.21421">
        <ele>123.343</ele>
        <time>2017-02-07T12:45:21.225Z</time>
      </trkpt>
      <trkpt lat="48.75709" lon="2.21419">
        <ele>124.291</ele>
        <time>2017-02-07T12:45:29.018Z</time>
      </trkpt>
      <trkpt lat="48.75718" lon="2.21419">
        <ele>124.891</ele>
        <time>2017-02-07T12:45:37.979Z</time>
      </trkpt>
      <trkpt lat="48.75727" lon="2.21419">
        <ele>125.337</ele>
        <time>2017-02-07T12:45:46.857Z</time>
      </trkpt>
      <trkpt lat="48.75736" lon="2.21419">
        <ele>125.843</ele>
        <time>2017-02-07T12:45:55.000Z</time>
      </trkpt>
      <trkpt lat="48.75736" lon="2.21419">
        <ele>126.402</ele>
        <time>2017-02-07T12:46:04.000Z</time>
      </trkpt>
      <trkpt lat="48.75736" lon="2.21419">
        <ele>126.702</ele>
        <time>2017-02-07T12:46:58.329Z</time>
      </trkpt>
      <trkpt lat="48.75749" lon="2.21422">
        <ele>126.627</ele>
        <time>2017-02-07T12:47:09.000Z</time>
      </trkpt>
      <trkpt lat="48.75749" lon="2.21422">
        <ele>126.439</ele>
        <time>2017-02-07T12:47:19.000Z</time>
      </trkpt>
      <trkpt lat="48.75749" lon="2.21422">
        <ele>126.377</ele>
        <time>2017-02-07T12:48:01.971Z</time>
      </trkpt>
      <trkpt lat="48.75771" lon="2.21429">
        <ele>126.415</ele>
        <time>2017-02-07T12:48:30.735Z</time>
      </trkpt>
      <trkpt lat="48.7578" lon="2.21435">
        <ele>127.5</ele>
        <time>2017-02-07T12:48:38.437Z</time>
      </trkpt>
      <trkpt lat="48.7579" lon="2.21442">
        <ele>130.367</ele>
        <time>2017-02-07T12:48:45.657Z</time>
      </trkpt>
      <trkpt lat="48.75799" lon="2.21446">
        <ele>133.87</ele>
        <time>2017-02-07T12:48:52.301Z</time>
      </trkpt>
      <trkpt lat="48.75807" lon="2.21452">
        <ele>136.529</ele>
        <time>2017-02-07T12:48:59.160Z</time>
      </trkpt>
      <trkpt lat="48.75817" lon="2.21457">
        <ele>138.03</ele>
        <time>2017-02-07T12:49:07.000Z</time>
      </trkpt>
      <trkpt lat="48.75817" lon="2.21457">
        <ele>138.58</ele>
        <time>2017-02-07T12:49:18.000Z</time>
      </trkpt>
      <trkpt lat="48.75817" lon="2.21457">
        <ele>138.648</ele>
        <time>2017-02-07T12:49:18.100Z</time>
      </trkpt>
      <trkpt lat="48.7583" lon="2.21457">
        <ele>138.544</ele>
        <time>2017-02-07T12:49:52.000Z</time>
      </trkpt>
      <trkpt lat="48.7583" lon="2.21457">
        <ele>138.449</ele>
        <time>2017-02-07T12:50:04.000Z</time>
      </trkpt>
      <trkpt lat="48.7583" lon="2.21457">
        <ele>138.402</ele>
        <time>2017-02-07T12:50:04.100Z</time>
      </trkpt>
      <trkpt lat="48.75842" lon="2.21454">
        <ele>138.384</ele>
        <time>2017-02-07T12:50:18.396Z</time>
      </trkpt>
      <trkpt lat="48.75852" lon="2.21452">
        <ele>139.828</ele>
        <time>2017-02-07T12:50:26.613Z</time>
      </trkpt>
      <trkpt lat="48.75861" lon="2.21451">
        <ele>143.897</ele>
        <time>2017-02-07T12:50:35.690Z</time>
      </trkpt>
      <trkpt lat="48.7587" lon="2.21455">
        <ele>148.881</ele>
        <time>2017-02-07T12:50:45.000Z</time>
      </trkpt>
      <trkpt lat="48.7587" lon="2.21455">
        <ele>152.389</ele>
        <time>2017-02-07T12:50:47.000Z</time>
      </trkpt>
      <trkpt lat="48.7587" lon="2.21455">
        <ele>153.775</ele>
        <time>2017-02-07T12:50:55.566Z</time>
      </trkpt>
      <trkpt lat="48.75876" lon="2.21466">
        <ele>152.741</ele>
        <time>2017-02-07T12:51:49.288Z</time>
      </trkpt>
      <trkpt lat="48.75882" lon="2.21476">
        <ele>152.567</ele>
        <time>2017-02-07T12:51:59.660Z</time>
      </trkpt>
      <trkpt lat="48.7589" lon="2.21481">
        <ele>153.271</ele>
        <time>2017-02-07T12:52:06.186Z</time>
      </trkpt>
      <trkpt lat="48.759" lon="2.21485">
        <ele>154.241</ele>
        <time>2017-02-07T12:52:12.839Z</time>
      </trkpt>
      <trkpt lat="48.75909" lon="2.21487">
        <ele>154.931</ele>
        <time>2017-02-07T12:52:20.395Z</time>
      </trkpt>
      <trkpt lat="48.75918" lon="2.21482">
        <ele>155.37</ele>
        <time>2017-02-07T12:52:29.254Z</time>
      </trkpt>
      <trkpt lat="48.75925" lon="2.21472">
        <ele>155.725</ele>
        <time>2017-02-07T12:52:38.120Z</time>
      </trkpt>
      <trkpt lat="48.75931" lon="2.21462">
        <ele>156.111</ele>
        <time>2017-02-07T12:52:48.085Z</time>
      </trkpt>
      <trkpt lat="48.75937" lon="2.21451">
        <ele>156.444</ele>
        <time>2017-02-07T12:52:57.539Z</time>
      </trkpt>
      <trkpt lat="48.75944" lon="2.2144">
        <ele>156.914</ele>
        <time>2017-02-07T12:53:07.282Z</time>
      </trkpt>
      <trkpt lat="48.75953" lon="2.21438">
        <ele>157.854</ele>
        <time>2017-02-07T12:53:15.654Z</time>
      </trkpt>
      <trkpt lat="48.75962" lon="2.21434">
        <ele>158.965</ele>
        <time>2017-02-07T12:53:24.386Z</time>
      </trkpt>
      <trkpt lat="48.75969" lon="2.21424">
        <ele>159.695</ele>
        <time>2017-02-07T12:53:32.780Z</time>
      </trkpt>
      <trkpt lat="48.75976" lon="2.21415">
        <ele>160.037</ele>
        <time>2017-02-07T12:53:40.658Z</time>
      </trkpt>
      <trkpt lat="48.75982" lon="2.21402">
        <ele>160.3</ele>
        <time>2017-02-07T12:53:48.864Z</time>
      </trkpt>
      <trkpt lat="48.75987" lon="2.21391">
        <ele>160.666</ele>
        <time>2017-02-07T12:53:56.389Z</time>
      </trkpt>
      <trkpt lat="48.75993" lon="2.21379">
        <ele>161.108</ele>
        <time>2017-02-07T12:54:04.431Z</time>
      </trkpt>
      <trkpt lat="48.75998" lon="2.21365">
        <ele>161.586</ele>
        <time>2017-02-07T12:54:12.893Z</time>
      </trkpt>
      <trkpt lat="48.76005" lon="2.21355">
        <ele>162.198</ele>
        <time>2017-02-07T12:54:21.508Z</time>
      </trkpt>
      <trkpt lat="48.7601" lon="2.21342">
        <ele>162.925</ele>
        <time>2017-02-07T12:54:29.667Z</time>
      </trkpt>
      <trkpt lat="48.76016" lon="2.21332">
        <ele>163.473</ele>
        <time>2017-02-07T12:54:36.882Z</time>
      </trkpt>
      <trkpt lat="48.76022" lon="2.21322">
        <ele>163.503</ele>
        <time>2017-02-07T12:54:43.653Z</time>
      </trkpt>
      <trkpt lat="48.76031" lon="2.21319">
        <ele>163.044</ele>
        <time>2017-02-07T12:54:50.581Z</time>
      </trkpt>
      <trkpt lat="48.76039" lon="2.2131">
        <ele>162.638</ele>
        <time>2017-02-07T12:54:58.537Z</time>
      </trkpt>
      <trkpt lat="48.76047" lon="2.21305">
        <ele>162.956</ele>
        <time>2017-02-07T12:55:06.179Z</time>
      </trkpt>
      <trkpt lat="48.76056" lon="2.21303">
        <ele>163.92</ele>
        <time>2017-02-07T12:55:13.379Z</time>
      </trkpt>
      <trkpt lat="48.76066" lon="2.21299">
        <ele>164.707</ele>
        <time>2017-02-07T12:55:21.530Z</time>
      </trkpt>
      <trkpt lat="48.76075" lon="2.21296">
        <ele>164.822</ele>
        <time>2017-02-07T12:55:31.515Z</time>
      </trkpt>
      <trkpt lat="48.76078" lon="2.21309">
        <ele>164.575</ele>
        <time>2017-02-07T12:55:42.399Z</time>
      </trkpt>
      <trkpt lat="48.76074" lon="2.21322">
        <ele>164.407</ele>
        <time>2017-02-07T12:55:53.496Z</time>
      </trkpt>
      <trkpt lat="48.76072" lon="2.21335">
        <ele>164.39</ele>
        <time>2017-02-07T12:56:03.207Z</time>
      </trkpt>
      <trkpt lat="48.76068" lon="2.21349">
        <ele>164.35</ele>
        <time>2017-02-07T12:56:12.712Z</time>
      </trkpt>
      <trkpt lat="48.76064" lon="2.21362">
        <ele>164.231</ele>
        <time>2017-02-07T12:56:22.218Z</time>
      </trkpt>
      <trkpt lat="48.76061" lon="2.21377">
        <ele>164.061</ele>
        <time>2017-02-07T12:56:32.242Z</time>
      </trkpt>
      <trkpt lat="48.76061" lon="2.21391">
        <ele>163.754</ele>
        <time>2017-02-07T12:56:41.014Z</time>
      </trkpt>
      <trkpt lat="48.7606" lon="2.21405">
        <ele>163.262</ele>
        <time>2017-02-07T12:56:49.703Z</time>
      </trkpt>
      <trkpt lat="48.76063" lon="2.21418">
        <ele>162.676</ele>
        <time>2017-02-07T12:56:58.095Z</time>
      </trkpt>
      <trkpt lat="48.76068" lon="2.21431">
        <ele>162.124</ele>
        <time>2017-02-07T12:57:06.798Z</time>
      </trkpt>
      <trkpt lat="48.76074" lon="2.2144">
        <ele>161.702</ele>
        <time>2017-02-07T12:57:16.141Z</time>
      </trkpt>
      <trkpt lat="48.76084" lon="2.21446">
        <ele>161.47</ele>
        <time>2017-02-07T12:57:24.999Z</time>
      </trkpt>
      <trkpt lat="48.76092" lon="2.21452">
        <ele>161.405</ele>
        <time>2017-02-07T12:57:32.444Z</time>
      </trkpt>
      <trkpt lat="48.76099" lon="2.21462">
        <ele>161.43</ele>
        <time>2017-02-07T12:57:40.149Z</time>
      </trkpt>
      <trkpt lat="48.76106" lon="2.21471">
        <ele>161.532</ele>
        <time>2017-02-07T12:57:48.816Z</time>
      </trkpt>
      <trkpt lat="48.76114" lon="2.21481">
        <ele>161.748</ele>
        <time>2017-02-07T12:57:57.963Z</time>
      </trkpt>
      <trkpt lat="48.76121" lon="2.2149">
        <ele>162.053</ele>
        <time>2017-02-07T12:58:06.701Z</time>
      </trkpt>
      <trkpt lat="48.76127" lon="2.21501">
        <ele>162.36</ele>
        <time>2017-02-07T12:58:16.271Z</time>
      </trkpt>
      <trkpt lat="48.76134" lon="2.21512">
        <ele>162.578</ele>
        <time>2017-02-07T12:58:26.328Z</time>
      </trkpt>
      <trkpt lat="48.7614" lon="2.21523">
        <ele>162.686</ele>
        <time>2017-02-07T12:58:34.758Z</time>
      </trkpt>
      <trkpt lat="48.76141" lon="2.21537">
        <ele>162.747</ele>
        <time>2017-02-07T12:58:43.652Z</time>
      </trkpt>
      <trkpt lat="48.7614" lon="2.21551">
        <ele>162.81</ele>
        <time>2017-02-07T12:58:53.612Z</time>
      </trkpt>
      <trkpt lat="48.76139" lon="2.21566">
        <ele>162.85</ele>
        <time>2017-02-07T12:59:04.881Z</time>
      </trkpt>
      <trkpt lat="48.76139" lon="2.2158">
        <ele>162.754</ele>
        <time>2017-02-07T12:59:15.878Z</time>
      </trkpt>
      <trkpt lat="48.76143" lon="2.21593">
        <ele>162.492</ele>
        <time>2017-02-07T12:59:26.125Z</time>
      </trkpt>
      <trkpt lat="48.76151" lon="2.21602">
        <ele>162.213</ele>
        <time>2017-02-07T12:59:35.483Z</time>
      </trkpt>
      <trkpt lat="48.76157" lon="2.21613">
        <ele>162.026</ele>
        <time>2017-02-07T12:59:44.385Z</time>
      </trkpt>
      <trkpt lat="48.76161" lon="2.21626">
        <ele>161.875</ele>
        <time>2017-02-07T12:59:52.500Z</time>
      </trkpt>
      <trkpt lat="48.76161" lon="2.2164">
        <ele>161.679</ele>
        <time>2017-02-07T13:00:01.275Z</time>
      </trkpt>
      <trkpt lat="48.76163" lon="2.21653">
        <ele>161.392</ele>
        <time>2017-02-07T13:00:10.334Z</time>
      </trkpt>
      <trkpt lat="48.76165" lon="2.21668">
        <ele>161.056</ele>
        <time>2017-02-07T13:00:20.040Z</time>
      </trkpt>
      <trkpt lat="48.76167" lon="2.21681">
        <ele>160.74</ele>
        <time>2017-02-07T13:00:28.270Z</time>
      </trkpt>
      <trkpt lat="48.7617" lon="2.21696">
        <ele>160.481</ele>
        <time>2017-02-07T13:00:36.769Z</time>
      </trkpt>
      <trkpt lat="48.76174" lon="2.21708">
        <ele>160.28</ele>
        <time>2017-02-07T13:00:45.108Z</time>
      </trkpt>
      <trkpt lat="48.7618" lon="2.21719">
        <ele>160.076</ele>
        <time>2017-02-07T13:00:54.205Z</time>
      </trkpt>
      <trkpt lat="48.76187" lon="2.21728">
        <ele>159.791</ele>
        <time>2017-02-07T13:01:02.823Z</time>
      </trkpt>
      <trkpt lat="48.76196" lon="2.21736">
        <ele>159.445</ele>
        <time>2017-02-07T13:01:12.597Z</time>
      </trkpt>
      <trkpt lat="48.76204" lon="2.21744">
        <ele>159.143</ele>
        <time>2017-02-07T13:01:22.701Z</time>
      </trkpt>
      <trkpt lat="48.76213" lon="2.21743">
        <ele>158.9</ele>
        <time>2017-02-07T13:01:34.025Z</time>
      </trkpt>
      <trkpt lat="48.76222" lon="2.21745">
        <ele>158.673</ele>
        <time>2017-02-07T13:01:44.999Z</time>
      </trkpt>
      <trkpt lat="48.76222" lon="2.21745">
        <ele>158.506</ele>
        <time>2017-02-07T13:01:50.999Z</time>
      </trkpt>
      <trkpt lat="48.76222" lon="2.21745">
        <ele>158.448</ele>
        <time>2017-02-07T13:01:51.099Z</time>
      </trkpt>
      <trkpt lat="48.76232" lon="2.21744">
        <ele>158.454</ele>
        <time>2017-02-07T13:02:13.230Z</time>
      </trkpt>
      <trkpt lat="48.76241" lon="2.21744">
        <ele>158.584</ele>
        <time>2017-02-07T13:02:21.707Z</time>
      </trkpt>
      <trkpt lat="48.76251" lon="2.21744">
        <ele>158.941</ele>
        <time>2017-02-07T13:02:30.333Z</time>
      </trkpt>
      <trkpt lat="48.7626" lon="2.21747">
        <ele>159.395</ele>
        <time>2017-02-07T13:02:39.976Z</time>
      </trkpt>
      <trkpt lat="48.76269" lon="2.21745">
        <ele>159.732</ele>
        <time>2017-02-07T13:02:48.724Z</time>
      </trkpt>
      <trkpt lat="48.76278" lon="2.21743">
        <ele>159.907</ele>
        <time>2017-02-07T13:02:57.012Z</time>
      </trkpt>
      <trkpt lat="48.76287" lon="2.21745">
        <ele>159.974</ele>
        <time>2017-02-07T13:03:05.506Z</time>
      </trkpt>
      <trkpt lat="48.76297" lon="2.21748">
        <ele>159.971</ele>
        <time>2017-02-07T13:03:14.052Z</time>
      </trkpt>
      <trkpt lat="48.76307" lon="2.21749">
        <ele>159.864</ele>
        <time>2017-02-07T13:03:21.865Z</time>
      </trkpt>
      <trkpt lat="48.76317" lon="2.21752">
        <ele>159.636</ele>
        <time>2017-02-07T13:03:29.289Z</time>
      </trkpt>
      <trkpt lat="48.76325" lon="2.21759">
        <ele>159.396</ele>
        <time>2017-02-07T13:03:36.306Z</time>
      </trkpt>
      <trkpt lat="48.76333" lon="2.21764">
        <ele>159.205</ele>
        <time>2017-02-07T13:03:44.080Z</time>
      </trkpt>
      <trkpt lat="48.76341" lon="2.21773">
        <ele>159.035</ele>
        <time>2017-02-07T13:03:53.494Z</time>
      </trkpt>
      <trkpt lat="48.7635" lon="2.21781">
        <ele>158.772</ele>
        <time>2017-02-07T13:04:03.030Z</time>
      </trkpt>
      <trkpt lat="48.76356" lon="2.21791">
        <ele>158.351</ele>
        <time>2017-02-07T13:04:11.294Z</time>
      </trkpt>
      <trkpt lat="48.76357" lon="2.21805">
        <ele>157.816</ele>
        <time>2017-02-07T13:04:19.999Z</time>
      </trkpt>
      <trkpt lat="48.76357" lon="2.21805">
        <ele>157.274</ele>
        <time>2017-02-07T13:04:29.999Z</time>
      </trkpt>
      <trkpt lat="48.76357" lon="2.21805">
        <ele>156.919</ele>
        <time>2017-02-07T13:04:30.099Z</time>
      </trkpt>
      <trkpt lat="48.76352" lon="2.21828">
        <ele>156.874</ele>
        <time>2017-02-07T13:04:57.125Z</time>
      </trkpt>
      <trkpt lat="48.76348" lon="2.21842">
        <ele>156.356</ele>
        <time>2017-02-07T13:05:07.764Z</time>
      </trkpt>
      <trkpt lat="48.76345" lon="2.21856">
        <ele>154.827</ele>
        <time>2017-02-07T13:05:17.113Z</time>
      </trkpt>
      <trkpt lat="48.76338" lon="2.21866">
        <ele>153.668</ele>
        <time>2017-02-07T13:05:26.828Z</time>
      </trkpt>
      <trkpt lat="48.76333" lon="2.21878">
        <ele>154.18</ele>
        <time>2017-02-07T13:05:37.283Z</time>
      </trkpt>
      <trkpt lat="48.76329" lon="2.21891">
        <ele>155.521</ele>
        <time>2017-02-07T13:05:47.375Z</time>
      </trkpt>
      <trkpt lat="48.76324" lon="2.21904">
        <ele>156.139</ele>
        <time>2017-02-07T13:05:56.865Z</time>
      </trkpt>
      <trkpt lat="48.76319" lon="2.21915">
        <ele>155.406</ele>
        <time>2017-02-07T13:06:04.522Z</time>
      </trkpt>
      <trkpt lat="48.76315" lon="2.21928">
        <ele>153.705</ele>
        <time>2017-02-07T13:06:11.557Z</time>
      </trkpt>
      <trkpt lat="48.7631" lon="2.2194">
        <ele>151.846</ele>
        <time>2017-02-07T13:06:19.803Z</time>
      </trkpt>
      <trkpt lat="48.76307" lon="2.21953">
        <ele>150.302</ele>
        <time>2017-02-07T13:06:29.350Z</time>
      </trkpt>
      <trkpt lat="48.763" lon="2.21965">
        <ele>148.886</ele>
        <time>2017-02-07T13:06:39.793Z</time>
      </trkpt>
      <trkpt lat="48.76296" lon="2.21978">
        <ele>147.213</ele>
        <time>2017-02-07T13:06:50.197Z</time>
      </trkpt>
      <trkpt lat="48.76293" lon="2.21992">
        <ele>145.468</ele>
        <time>2017-02-07T13:06:59.672Z</time>
      </trkpt>
      <trkpt lat="48.76289" lon="2.22005">
        <ele>143.979</ele>
        <time>2017-02-07T13:07:08.326Z</time>
      </trkpt>
      <trkpt lat="48.76285" lon="2.22018">
        <ele>142.64</ele>
        <time>2017-02-07T13:07:16.305Z</time>
      </trkpt>
      <trkpt lat="48.76282" lon="2.22031">
        <ele>141.208</ele>
        <time>2017-02-07T13:07:24.225Z</time>
      </trkpt>
      <trkpt lat="48.76275" lon="2.22042">
        <ele>139.771</ele>
        <time>2017-02-07T13:07:33.424Z</time>
      </trkpt>
      <trkpt lat="48.76273" lon="2.22057">
        <ele>138.459</ele>
        <time>2017-02-07T13:07:43.010Z</time>
      </trkpt>
      <trkpt lat="48.7627" lon="2.22071">
        <ele>137.181</ele>
        <time>2017-02-07T13:07:52.030Z</time>
      </trkpt>
      <trkpt lat="48.76266" lon="2.22085">
        <ele>135.853</ele>
        <time>2017-02-07T13:08:01.125Z</time>
      </trkpt>
      <trkpt lat="48.76261" lon="2.22097">
        <ele>134.526</ele>
        <time>2017-02-07T13:08:10.216Z</time>
      </trkpt>
      <trkpt lat="48.76257" lon="2.22111">
        <ele>133.342</ele>
        <time>2017-02-07T13:08:21.121Z</time>
      </trkpt>
      <trkpt lat="48.76253" lon="2.22124">
        <ele>132.243</ele>
        <time>2017-02-07T13:08:31.399Z</time>
      </trkpt>
      <trkpt lat="48.7625" lon="2.22137">
        <ele>130.942</ele>
        <time>2017-02-07T13:08:40.395Z</time>
      </trkpt>
      <trkpt lat="48.76249" lon="2.22151">
        <ele>129.387</ele>
        <time>2017-02-07T13:08:49.543Z</time>
      </trkpt>
      <trkpt lat="48.76243" lon="2.22162">
        <ele>127.77</ele>
        <time>2017-02-07T13:08:58.337Z</time>
      </trkpt>
      <trkpt lat="48.76236" lon="2.22171">
        <ele>126.258</ele>
        <time>2017-02-07T13:09:05.694Z</time>
      </trkpt>
      <trkpt lat="48.76229" lon="2.22182">
        <ele>125.034</ele>
        <time>2017-02-07T13:09:13.144Z</time>
      </trkpt>
      <trkpt lat="48.76225" lon="2.22194">
        <ele>124.14</ele>
        <time>2017-02-07T13:09:20.444Z</time>
      </trkpt>
      <trkpt lat="48.76222" lon="2.22208">
        <ele>123.341</ele>
        <time>2017-02-07T13:09:29.225Z</time>
      </trkpt>
      <trkpt lat="48.76217" lon="2.2222">
        <ele>122.213</ele>
        <time>2017-02-07T13:09:37.344Z</time>
      </trkpt>
      <trkpt lat="48.76212" lon="2.22231">
        <ele>120.81</ele>
        <time>2017-02-07T13:09:45.330Z</time>
      </trkpt>
      <trkpt lat="48.76208" lon="2.22245">
        <ele>119.578</ele>
        <time>2017-02-07T13:09:54.136Z</time>
      </trkpt>
      <trkpt lat="48.76202" lon="2.22256">
        <ele>118.302</ele>
        <time>2017-02-07T13:10:03.502Z</time>
      </trkpt>
      <trkpt lat="48.76197" lon="2.22268">
        <ele>116.605</ele>
        <time>2017-02-07T13:10:11.999Z</time>
      </trkpt>
      <trkpt lat="48.76197" lon="2.22268">
        <ele>115.023</ele>
        <time>2017-02-07T13:10:19.999Z</time>
      </trkpt>
      <trkpt lat="48.76197" lon="2.22268">
        <ele>114.266</ele>
        <time>2017-02-07T13:15:41.200Z</time>
      </trkpt>
      <trkpt lat="48.76189" lon="2.22303">
        <ele>114.325</ele>
        <time>2017-02-07T13:16:00.464Z</time>
      </trkpt>
      <trkpt lat="48.76185" lon="2.22316">
        <ele>114.689</ele>
        <time>2017-02-07T13:16:06.723Z</time>
      </trkpt>
      <trkpt lat="48.76179" lon="2.22327">
        <ele>114.602</ele>
        <time>2017-02-07T13:16:15.665Z</time>
      </trkpt>
      <trkpt lat="48.76174" lon="2.22341">
        <ele>113.451</ele>
        <time>2017-02-07T13:16:23.520Z</time>
      </trkpt>
      <trkpt lat="48.7618" lon="2.22352">
        <ele>111.464</ele>
        <time>2017-02-07T13:16:30.325Z</time>
      </trkpt>
      <trkpt lat="48.76186" lon="2.22364">
        <ele>109.483</ele>
        <time>2017-02-07T13:16:37.000Z</time>
      </trkpt>
      <trkpt lat="48.76186" lon="2.22364">
        <ele>108.093</ele>
        <time>2017-02-07T13:16:49.000Z</time>
      </trkpt>
      <trkpt lat="48.76186" lon="2.22364">
        <ele>107.493</ele>
        <time>2017-02-07T13:17:01.095Z</time>
      </trkpt>
      <trkpt lat="48.76182" lon="2.22382">
        <ele>107.527</ele>
        <time>2017-02-07T13:17:14.804Z</time>
      </trkpt>
      <trkpt lat="48.76182" lon="2.22396">
        <ele>107.772</ele>
        <time>2017-02-07T13:17:22.522Z</time>
      </trkpt>
      <trkpt lat="48.76189" lon="2.22406">
        <ele>107.997</ele>
        <time>2017-02-07T13:17:29.672Z</time>
      </trkpt>
      <trkpt lat="48.76196" lon="2.22417">
        <ele>108.188</ele>
        <time>2017-02-07T13:17:36.289Z</time>
      </trkpt>
      <trkpt lat="48.76202" lon="2.22428">
        <ele>108.276</ele>
        <time>2017-02-07T13:17:43.104Z</time>
      </trkpt>
      <trkpt lat="48.7621" lon="2.22438">
        <ele>108.203</ele>
        <time>2017-02-07T13:17:50.388Z</time>
      </trkpt>
      <trkpt lat="48.76218" lon="2.22446">
        <ele>108.069</ele>
        <time>2017-02-07T13:17:56.692Z</time>
      </trkpt>
      <trkpt lat="48.76226" lon="2.22455">
        <ele>107.578</ele>
        <time>2017-02-07T13:18:03.743Z</time>
      </trkpt>
      <trkpt lat="48.76234" lon="2.22464">
        <ele>106.494</ele>
        <time>2017-02-07T13:18:10.422Z</time>
      </trkpt>
      <trkpt lat="48.76241" lon="2.22473">
        <ele>105.445</ele>
        <time>2017-02-07T13:18:17.136Z</time>
      </trkpt>
      <trkpt lat="48.76248" lon="2.22482">
        <ele>105.032</ele>
        <time>2017-02-07T13:18:24.551Z</time>
      </trkpt>
      <trkpt lat="48.76256" lon="2.2249">
        <ele>105.07</ele>
        <time>2017-02-07T13:18:31.491Z</time>
      </trkpt>
      <trkpt lat="48.76265" lon="2.22494">
        <ele>105.232</ele>
        <time>2017-02-07T13:18:37.986Z</time>
      </trkpt>
      <trkpt lat="48.76272" lon="2.22502">
        <ele>105.41</ele>
        <time>2017-02-07T13:18:44.408Z</time>
      </trkpt>
      <trkpt lat="48.76281" lon="2.2251">
        <ele>105.615</ele>
        <time>2017-02-07T13:18:51.855Z</time>
      </trkpt>
      <trkpt lat="48.76287" lon="2.22522">
        <ele>105.858</ele>
        <time>2017-02-07T13:18:59.068Z</time>
      </trkpt>
      <trkpt lat="48.76295" lon="2.22532">
        <ele>106.172</ele>
        <time>2017-02-07T13:19:05.960Z</time>
      </trkpt>
      <trkpt lat="48.763" lon="2.22544">
        <ele>106.521</ele>
        <time>2017-02-07T13:19:13.014Z</time>
      </trkpt>
      <trkpt lat="48.76304" lon="2.22557">
        <ele>106.856</ele>
        <time>2017-02-07T13:19:19.914Z</time>
      </trkpt>
      <trkpt lat="48.7631" lon="2.2257">
        <ele>107.181</ele>
        <time>2017-02-07T13:19:27.139Z</time>
      </trkpt>
      <trkpt lat="48.76317" lon="2.2258">
        <ele>107.363</ele>
        <time>2017-02-07T13:19:33.289Z</time>
      </trkpt>
      <trkpt lat="48.76324" lon="2.22589">
        <ele>107.195</ele>
        <time>2017-02-07T13:19:39.140Z</time>
      </trkpt>
      <trkpt lat="48.7633" lon="2.22601">
        <ele>106.757</ele>
        <time>2017-02-07T13:19:45.353Z</time>
      </trkpt>
      <trkpt lat="48.76336" lon="2.22612">
        <ele>106.426</ele>
        <time>2017-02-07T13:19:52.267Z</time>
      </trkpt>
      <trkpt lat="48.76344" lon="2.22621">
        <ele>106.424</ele>
        <time>2017-02-07T13:19:59.210Z</time>
      </trkpt>
      <trkpt lat="48.76351" lon="2.2263">
        <ele>106.66</ele>
        <time>2017-02-07T13:20:05.318Z</time>
      </trkpt>
      <trkpt lat="48.7636" lon="2.22638">
        <ele>107.03</ele>
        <time>2017-02-07T13:20:12.063Z</time>
      </trkpt>
      <trkpt lat="48.76368" lon="2.22647">
        <ele>107.451</ele>
        <time>2017-02-07T13:20:18.976Z</time>
      </trkpt>
      <trkpt lat="48.76377" lon="2.22656">
        <ele>107.844</ele>
        <time>2017-02-07T13:20:25.898Z</time>
      </trkpt>
      <trkpt lat="48.76386" lon="2.22665">
        <ele>108.314</ele>
        <time>2017-02-07T13:20:32.646Z</time>
      </trkpt>
      <trkpt lat="48.76394" lon="2.22672">
        <ele>108.931</ele>
        <time>2017-02-07T13:20:39.000Z</time>
      </trkpt>
      <trkpt lat="48.76394" lon="2.22672">
        <ele>109.488</ele>
        <time>2017-02-07T13:20:42.000Z</time>
      </trkpt>
      <trkpt lat="48.76394" lon="2.22672">
        <ele>109.726</ele>
        <time>2017-02-07T13:20:46.188Z</time>
      </trkpt>
      <trkpt lat="48.76403" lon="2.22681">
        <ele>109.651</ele>
        <time>2017-02-07T13:21:00.195Z</time>
      </trkpt>
      <trkpt lat="48.7641" lon="2.22689">
        <ele>110.251</ele>
        <time>2017-02-07T13:21:07.801Z</time>
      </trkpt>
      <trkpt lat="48.76418" lon="2.22698">
        <ele>112.252</ele>
        <time>2017-02-07T13:21:15.646Z</time>
      </trkpt>
      <trkpt lat="48.76425" lon="2.22707">
        <ele>114.533</ele>
        <time>2017-02-07T13:21:22.581Z</time>
      </trkpt>
      <trkpt lat="48.76433" lon="2.22715">
        <ele>115.328</ele>
        <time>2017-02-07T13:21:29.375Z</time>
      </trkpt>
      <trkpt lat="48.76441" lon="2.22722">
        <ele>114.458</ele>
        <time>2017-02-07T13:21:35.794Z</time>
      </trkpt>
      <trkpt lat="48.76449" lon="2.22729">
        <ele>113.282</ele>
        <time>2017-02-07T13:21:42.697Z</time>
      </trkpt>
      <trkpt lat="48.7646" lon="2.22744">
        <ele>113.101</ele>
        <time>2017-02-07T13:21:53.275Z</time>
      </trkpt>
      <trkpt lat="48.76465" lon="2.22755">
        <ele>113.783</ele>
        <time>2017-02-07T13:22:00.000Z</time>
      </trkpt>
      <trkpt lat="48.76465" lon="2.22755">
        <ele>114.448</ele>
        <time>2017-02-07T13:22:02.000Z</time>
      </trkpt>
      <trkpt lat="48.76465" lon="2.22755">
        <ele>114.601</ele>
        <time>2017-02-07T13:22:06.037Z</time>
      </trkpt>
      <trkpt lat="48.76473" lon="2.22762">
        <ele>114.329</ele>
        <time>2017-02-07T13:22:20.117Z</time>
      </trkpt>
      <trkpt lat="48.76482" lon="2.2277">
        <ele>114.832</ele>
        <time>2017-02-07T13:22:28.330Z</time>
      </trkpt>
      <trkpt lat="48.76489" lon="2.22778">
        <ele>116.259</ele>
        <time>2017-02-07T13:22:35.026Z</time>
      </trkpt>
      <trkpt lat="48.76497" lon="2.22786">
        <ele>117.238</ele>
        <time>2017-02-07T13:22:41.977Z</time>
      </trkpt>
      <trkpt lat="48.76505" lon="2.22796">
        <ele>116.632</ele>
        <time>2017-02-07T13:22:49.467Z</time>
      </trkpt>
      <trkpt lat="48.76513" lon="2.22803">
        <ele>115.36</ele>
        <time>2017-02-07T13:22:56.523Z</time>
      </trkpt>
      <trkpt lat="48.76522" lon="2.22811">
        <ele>114.549</ele>
        <time>2017-02-07T13:23:03.584Z</time>
      </trkpt>
      <trkpt lat="48.76529" lon="2.2282">
        <ele>114.335</ele>
        <time>2017-02-07T13:23:10.890Z</time>
      </trkpt>
      <trkpt lat="48.76537" lon="2.22829">
        <ele>114.516</ele>
        <time>2017-02-07T13:23:19.084Z</time>
      </trkpt>
      <trkpt lat="48.76545" lon="2.22838">
        <ele>114.84</ele>
        <time>2017-02-07T13:23:26.897Z</time>
      </trkpt>
      <trkpt lat="48.76552" lon="2.22847">
        <ele>115.118</ele>
        <time>2017-02-07T13:23:34.462Z</time>
      </trkpt>
      <trkpt lat="48.7656" lon="2.22856">
        <ele>116.116</ele>
        <time>2017-02-07T13:23:42.589Z</time>
      </trkpt>
      <trkpt lat="48.76567" lon="2.22866">
        <ele>118.348</ele>
        <time>2017-02-07T13:23:51.021Z</time>
      </trkpt>
      <trkpt lat="48.76575" lon="2.22875">
        <ele>120.425</ele>
        <time>2017-02-07T13:23:58.994Z</time>
      </trkpt>
      <trkpt lat="48.76583" lon="2.22883">
        <ele>120.89</ele>
        <time>2017-02-07T13:24:07.183Z</time>
      </trkpt>
      <trkpt lat="48.76591" lon="2.22892">
        <ele>120.102</ele>
        <time>2017-02-07T13:24:15.263Z</time>
      </trkpt>
      <trkpt lat="48.76599" lon="2.229">
        <ele>119.076</ele>
        <time>2017-02-07T13:24:22.742Z</time>
      </trkpt>
      <trkpt lat="48.76607" lon="2.22907">
        <ele>118.463</ele>
        <time>2017-02-07T13:24:29.740Z</time>
      </trkpt>
      <trkpt lat="48.76614" lon="2.22917">
        <ele>118.34</ele>
        <time>2017-02-07T13:24:36.823Z</time>
      </trkpt>
      <trkpt lat="48.76622" lon="2.22924">
        <ele>118.508</ele>
        <time>2017-02-07T13:24:44.538Z</time>
      </trkpt>
      <trkpt lat="48.76634" lon="2.22941">
        <ele>118.706</ele>
        <time>2017-02-07T13:24:57.422Z</time>
      </trkpt>
      <trkpt lat="48.76641" lon="2.22952">
        <ele>118.735</ele>
        <time>2017-02-07T13:25:06.213Z</time>
      </trkpt>
      <trkpt lat="48.76648" lon="2.2296">
        <ele>118.43</ele>
        <time>2017-02-07T13:25:14.128Z</time>
      </trkpt>
      <trkpt lat="48.76649" lon="2.22975">
        <ele>117.866</ele>
        <time>2017-02-07T13:25:22.297Z</time>
      </trkpt>
      <trkpt lat="48.7665" lon="2.22989">
        <ele>117.364</ele>
        <time>2017-02-07T13:25:30.236Z</time>
      </trkpt>
      <trkpt lat="48.7665" lon="2.23002">
        <ele>117.184</ele>
        <time>2017-02-07T13:25:37.978Z</time>
      </trkpt>
      <trkpt lat="48.76652" lon="2.23018">
        <ele>117.292</ele>
        <time>2017-02-07T13:25:45.758Z</time>
      </trkpt>
      <trkpt lat="48.7665" lon="2.23033">
        <ele>117.471</ele>
        <time>2017-02-07T13:25:52.375Z</time>
      </trkpt>
      <trkpt lat="48.76648" lon="2.23047">
        <ele>117.564</ele>
        <time>2017-02-07T13:25:58.836Z</time>
      </trkpt>
      <trkpt lat="48.76648" lon="2.23061">
        <ele>117.585</ele>
        <time>2017-02-07T13:26:05.807Z</time>
      </trkpt>
      <trkpt lat="48.76644" lon="2.23074">
        <ele>117.5</ele>
        <time>2017-02-07T13:26:14.021Z</time>
      </trkpt>
      <trkpt lat="48.76642" lon="2.23089">
        <ele>117.273</ele>
        <time>2017-02-07T13:26:22.981Z</time>
      </trkpt>
      <trkpt lat="48.76638" lon="2.23103">
        <ele>116.902</ele>
        <time>2017-02-07T13:26:31.566Z</time>
      </trkpt>
      <trkpt lat="48.76634" lon="2.23117">
        <ele>116.347</ele>
        <time>2017-02-07T13:26:39.493Z</time>
      </trkpt>
      <trkpt lat="48.7663" lon="2.23132">
        <ele>115.651</ele>
        <time>2017-02-07T13:26:47.538Z</time>
      </trkpt>
      <trkpt lat="48.76626" lon="2.23146">
        <ele>115.01</ele>
        <time>2017-02-07T13:26:55.605Z</time>
      </trkpt>
      <trkpt lat="48.76622" lon="2.23159">
        <ele>114.496</ele>
        <time>2017-02-07T13:27:03.907Z</time>
      </trkpt>
      <trkpt lat="48.7662" lon="2.23173">
        <ele>114.055</ele>
        <time>2017-02-07T13:27:11.626Z</time>
      </trkpt>
      <trkpt lat="48.76616" lon="2.23186">
        <ele>113.688</ele>
        <time>2017-02-07T13:27:20.059Z</time>
      </trkpt>
      <trkpt lat="48.76614" lon="2.23201">
        <ele>113.316</ele>
        <time>2017-02-07T13:27:28.170Z</time>
      </trkpt>
      <trkpt lat="48.76611" lon="2.23216">
        <ele>112.765</ele>
        <time>2017-02-07T13:27:36.370Z</time>
      </trkpt>
      <trkpt lat="48.76607" lon="2.23228">
        <ele>112.136</ele>
        <time>2017-02-07T13:27:43.636Z</time>
      </trkpt>
      <trkpt lat="48.76603" lon="2.23241">
        <ele>111.717</ele>
        <time>2017-02-07T13:27:50.423Z</time>
      </trkpt>
      <trkpt lat="48.766" lon="2.23254">
        <ele>111.58</ele>
        <time>2017-02-07T13:27:57.215Z</time>
      </trkpt>
      <trkpt lat="48.76598" lon="2.23268">
        <ele>111.582</ele>
        <time>2017-02-07T13:28:04.738Z</time>
      </trkpt>
      <trkpt lat="48.76595" lon="2.23282">
        <ele>111.599</ele>
        <time>2017-02-07T13:28:13.471Z</time>
      </trkpt>
      <trkpt lat="48.76592" lon="2.23296">
        <ele>111.779</ele>
        <time>2017-02-07T13:28:21.761Z</time>
      </trkpt>
      <trkpt lat="48.7659" lon="2.2331">
        <ele>112.341</ele>
        <time>2017-02-07T13:28:29.000Z</time>
      </trkpt>
      <trkpt lat="48.7659" lon="2.2331">
        <ele>113.081</ele>
        <time>2017-02-07T13:28:34.000Z</time>
      </trkpt>
      <trkpt lat="48.7659" lon="2.2331">
        <ele>113.488</ele>
        <time>2017-02-07T13:36:29.232Z</time>
      </trkpt>
      <trkpt lat="48.766" lon="2.23314">
        <ele>113.144</ele>
        <time>2017-02-07T13:36:54.246Z</time>
      </trkpt>
      <trkpt lat="48.76609" lon="2.23319">
        <ele>113.055</ele>
        <time>2017-02-07T13:37:03.145Z</time>
      </trkpt>
      <trkpt lat="48.76618" lon="2.23321">
        <ele>113.306</ele>
        <time>2017-02-07T13:37:12.609Z</time>
      </trkpt>
      <trkpt lat="48.76626" lon="2.23328">
        <ele>113.818</ele>
        <time>2017-02-07T13:37:22.471Z</time>
      </trkpt>
      <trkpt lat="48.76634" lon="2.23338">
        <ele>114.682</ele>
        <time>2017-02-07T13:37:32.465Z</time>
      </trkpt>
      <trkpt lat="48.76643" lon="2.23342">
        <ele>116.215</ele>
        <time>2017-02-07T13:37:40.637Z</time>
      </trkpt>
      <trkpt lat="48.76652" lon="2.23348">
        <ele>118.049</ele>
        <time>2017-02-07T13:37:47.854Z</time>
      </trkpt>
      <trkpt lat="48.7666" lon="2.23355">
        <ele>119.439</ele>
        <time>2017-02-07T13:37:55.683Z</time>
      </trkpt>
      <trkpt lat="48.76669" lon="2.23361">
        <ele>120.404</ele>
        <time>2017-02-07T13:38:03.544Z</time>
      </trkpt>
      <trkpt lat="48.76677" lon="2.23368">
        <ele>121.265</ele>
        <time>2017-02-07T13:38:11.419Z</time>
      </trkpt>
      <trkpt lat="48.76685" lon="2.23377">
        <ele>122.031</ele>
        <time>2017-02-07T13:38:19.650Z</time>
      </trkpt>
      <trkpt lat="48.76691" lon="2.23388">
        <ele>122.769</ele>
        <time>2017-02-07T13:38:28.517Z</time>
      </trkpt>
      <trkpt lat="48.76695" lon="2.23401">
        <ele>123.617</ele>
        <time>2017-02-07T13:38:37.273Z</time>
      </trkpt>
      <trkpt lat="48.76694" lon="2.23415">
        <ele>124.648</ele>
        <time>2017-02-07T13:38:45.555Z</time>
      </trkpt>
      <trkpt lat="48.76692" lon="2.2343">
        <ele>125.89</ele>
        <time>2017-02-07T13:38:53.658Z</time>
      </trkpt>
      <trkpt lat="48.76694" lon="2.23443">
        <ele>127.176</ele>
        <time>2017-02-07T13:39:01.099Z</time>
      </trkpt>
      <trkpt lat="48.76689" lon="2.23457">
        <ele>128.263</ele>
        <time>2017-02-07T13:39:09.021Z</time>
      </trkpt>
      <trkpt lat="48.76686" lon="2.2347">
        <ele>129.158</ele>
        <time>2017-02-07T13:39:16.613Z</time>
      </trkpt>
      <trkpt lat="48.76684" lon="2.23483">
        <ele>130.076</ele>
        <time>2017-02-07T13:39:24.586Z</time>
      </trkpt>
      <trkpt lat="48.76686" lon="2.23498">
        <ele>131.071</ele>
        <time>2017-02-07T13:39:33.142Z</time>
      </trkpt>
      <trkpt lat="48.76694" lon="2.23505">
        <ele>132.047</ele>
        <time>2017-02-07T13:39:41.553Z</time>
      </trkpt>
      <trkpt lat="48.76703" lon="2.23508">
        <ele>132.98</ele>
        <time>2017-02-07T13:39:48.757Z</time>
      </trkpt>
      <trkpt lat="48.76713" lon="2.23507">
        <ele>133.828</ele>
        <time>2017-02-07T13:39:56.485Z</time>
      </trkpt>
      <trkpt lat="48.76721" lon="2.23502">
        <ele>134.437</ele>
        <time>2017-02-07T13:40:04.339Z</time>
      </trkpt>
      <trkpt lat="48.7673" lon="2.23496">
        <ele>134.606</ele>
        <time>2017-02-07T13:40:12.432Z</time>
      </trkpt>
      <trkpt lat="48.76739" lon="2.23491">
        <ele>134.328</ele>
        <time>2017-02-07T13:40:21.002Z</time>
      </trkpt>
      <trkpt lat="48.76748" lon="2.23494">
        <ele>134.612</ele>
        <time>2017-02-07T13:40:30.331Z</time>
      </trkpt>
      <trkpt lat="48.76752" lon="2.23508">
        <ele>136.321</ele>
        <time>2017-02-07T13:40:40.532Z</time>
      </trkpt>
      <trkpt lat="48.76752" lon="2.23522">
        <ele>138.8</ele>
        <time>2017-02-07T13:40:49.512Z</time>
      </trkpt>
      <trkpt lat="48.76749" lon="2.23537">
        <ele>141.029</ele>
        <time>2017-02-07T13:40:59.026Z</time>
      </trkpt>
      <trkpt lat="48.76747" lon="2.23552">
        <ele>142.852</ele>
        <time>2017-02-07T13:41:08.228Z</time>
      </trkpt>
      <trkpt lat="48.76745" lon="2.23566">
        <ele>144.279</ele>
        <time>2017-02-07T13:41:16.196Z</time>
      </trkpt>
      <trkpt lat="48.76743" lon="2.23581">
        <ele>145.302</ele>
        <time>2017-02-07T13:41:24.801Z</time>
      </trkpt>
      <trkpt lat="48.76739" lon="2.23594">
        <ele>146.076</ele>
        <time>2017-02-07T13:41:33.016Z</time>
      </trkpt>
      <trkpt lat="48.76733" lon="2.23607">
        <ele>146.847</ele>
        <time>2017-02-07T13:41:41.859Z</time>
      </trkpt>
      <trkpt lat="48.7673" lon="2.2362">
        <ele>147.74</ele>
        <time>2017-02-07T13:41:49.667Z</time>
      </trkpt>
      <trkpt lat="48.76726" lon="2.23633">
        <ele>148.854</ele>
        <time>2017-02-07T13:41:57.046Z</time>
      </trkpt>
      <trkpt lat="48.76723" lon="2.23647">
        <ele>150.081</ele>
        <time>2017-02-07T13:42:04.717Z</time>
      </trkpt>
      <trkpt lat="48.76717" lon="2.23657">
        <ele>151.164</ele>
        <time>2017-02-07T13:42:12.247Z</time>
      </trkpt>
      <trkpt lat="48.76708" lon="2.23659">
        <ele>152.066</ele>
        <time>2017-02-07T13:42:19.716Z</time>
      </trkpt>
      <trkpt lat="48.76699" lon="2.23667">
        <ele>152.979</ele>
        <time>2017-02-07T13:42:27.582Z</time>
      </trkpt>
      <trkpt lat="48.76689" lon="2.23667">
        <ele>153.823</ele>
        <time>2017-02-07T13:42:35.134Z</time>
      </trkpt>
      <trkpt lat="48.7668" lon="2.23673">
        <ele>154.432</ele>
        <time>2017-02-07T13:42:42.288Z</time>
      </trkpt>
      <trkpt lat="48.76672" lon="2.23678">
        <ele>154.879</ele>
        <time>2017-02-07T13:42:48.701Z</time>
      </trkpt>
      <trkpt lat="48.76665" lon="2.23688">
        <ele>155.317</ele>
        <time>2017-02-07T13:42:55.810Z</time>
      </trkpt>
      <trkpt lat="48.76658" lon="2.23696">
        <ele>155.82</ele>
        <time>2017-02-07T13:43:02.913Z</time>
      </trkpt>
      <trkpt lat="48.76651" lon="2.23707">
        <ele>156.396</ele>
        <time>2017-02-07T13:43:10.036Z</time>
      </trkpt>
      <trkpt lat="48.76646" lon="2.23719">
        <ele>156.959</ele>
        <time>2017-02-07T13:43:16.235Z</time>
      </trkpt>
      <trkpt lat="48.76642" lon="2.23733">
        <ele>157.458</ele>
        <time>2017-02-07T13:43:23.580Z</time>
      </trkpt>
      <trkpt lat="48.7664" lon="2.23746">
        <ele>157.912</ele>
        <time>2017-02-07T13:43:31.444Z</time>
      </trkpt>
      <trkpt lat="48.76634" lon="2.23757">
        <ele>158.565</ele>
        <time>2017-02-07T13:43:40.992Z</time>
      </trkpt>
      <trkpt lat="48.76632" lon="2.23772">
        <ele>159.573</ele>
        <time>2017-02-07T13:43:49.627Z</time>
      </trkpt>
      <trkpt lat="48.7663" lon="2.23787">
        <ele>160.747</ele>
        <time>2017-02-07T13:43:58.000Z</time>
      </trkpt>
      <trkpt lat="48.7663" lon="2.23787">
        <ele>161.726</ele>
        <time>2017-02-07T13:44:05.000Z</time>
      </trkpt>
      <trkpt lat="48.7663" lon="2.23787">
        <ele>162.187</ele>
        <time>2017-02-07T13:44:05.100Z</time>
      </trkpt>
      <trkpt lat="48.76629" lon="2.23809">
        <ele>162.073</ele>
        <time>2017-02-07T13:44:21.703Z</time>
      </trkpt>
      <trkpt lat="48.7663" lon="2.23823">
        <ele>162.105</ele>
        <time>2017-02-07T13:44:31.081Z</time>
      </trkpt>
      <trkpt lat="48.76632" lon="2.23837">
        <ele>162.878</ele>
        <time>2017-02-07T13:44:42.505Z</time>
      </trkpt>
      <trkpt lat="48.76634" lon="2.23852">
        <ele>164.056</ele>
        <time>2017-02-07T13:44:56.347Z</time>
      </trkpt>
      <trkpt lat="48.76628" lon="2.23862">
        <ele>165.04</ele>
        <time>2017-02-07T13:45:09.654Z</time>
      </trkpt>
      <trkpt lat="48.76624" lon="2.23874">
        <ele>165.845</ele>
        <time>2017-02-07T13:45:23.234Z</time>
      </trkpt>
      <trkpt lat="48.76615" lon="2.23883">
        <ele>166.785</ele>
        <time>2017-02-07T13:45:38.015Z</time>
      </trkpt>
      <trkpt lat="48.76607" lon="2.23892">
        <ele>167.782</ele>
        <time>2017-02-07T13:45:52.405Z</time>
      </trkpt>
      <trkpt lat="48.76599" lon="2.23899">
        <ele>168.43</ele>
        <time>2017-02-07T13:46:05.764Z</time>
      </trkpt>
      <trkpt lat="48.7659" lon="2.23902">
        <ele>168.815</ele>
        <time>2017-02-07T13:46:19.984Z</time>
      </trkpt>
      <trkpt lat="48.76582" lon="2.23911">
        <ele>169.272</ele>
        <time>2017-02-07T13:46:33.187Z</time>
      </trkpt>
      <trkpt lat="48.76573" lon="2.23916">
        <ele>169.782</ele>
        <time>2017-02-07T13:46:47.394Z</time>
      </trkpt>
      <trkpt lat="48.76564" lon="2.23921">
        <ele>170.166</ele>
        <time>2017-02-07T13:47:02.109Z</time>
      </trkpt>
      <trkpt lat="48.76556" lon="2.23929">
        <ele>170.426</ele>
        <time>2017-02-07T13:47:15.364Z</time>
      </trkpt>
      <trkpt lat="48.76549" lon="2.23938">
        <ele>170.602</ele>
        <time>2017-02-07T13:47:28.827Z</time>
      </trkpt>
      <trkpt lat="48.76541" lon="2.23945">
        <ele>170.665</ele>
        <time>2017-02-07T13:47:42.789Z</time>
      </trkpt>
      <trkpt lat="48.76532" lon="2.23952">
        <ele>170.61</ele>
        <time>2017-02-07T13:47:55.705Z</time>
      </trkpt>
      <trkpt lat="48.76524" lon="2.23963">
        <ele>170.559</ele>
        <time>2017-02-07T13:48:04.271Z</time>
      </trkpt>
      <trkpt lat="48.76515" lon="2.23967">
        <ele>170.607</ele>
        <time>2017-02-07T13:48:11.512Z</time>
      </trkpt>
      <trkpt lat="48.76506" lon="2.23972">
        <ele>170.701</ele>
        <time>2017-02-07T13:48:19.814Z</time>
      </trkpt>
      <trkpt lat="48.76498" lon="2.23979">
        <ele>170.768</ele>
        <time>2017-02-07T13:48:27.590Z</time>
      </trkpt>
      <trkpt lat="48.76489" lon="2.23987">
        <ele>170.88</ele>
        <time>2017-02-07T13:48:36.575Z</time>
      </trkpt>
      <trkpt lat="48.76481" lon="2.23995">
        <ele>171.193</ele>
        <time>2017-02-07T13:48:44.779Z</time>
      </trkpt>
      <trkpt lat="48.76473" lon="2.24003">
        <ele>171.696</ele>
        <time>2017-02-07T13:48:52.742Z</time>
      </trkpt>
      <trkpt lat="48.76465" lon="2.24011">
        <ele>172.154</ele>
        <time>2017-02-07T13:49:00.958Z</time>
      </trkpt>
      <trkpt lat="48.76457" lon="2.24017">
        <ele>172.058</ele>
        <time>2017-02-07T13:49:10.553Z</time>
      </trkpt>
      <trkpt lat="48.76448" lon="2.24022">
        <ele>171.233</ele>
        <time>2017-02-07T13:49:20.211Z</time>
      </trkpt>
      <trkpt lat="48.7644" lon="2.24029">
        <ele>170.348</ele>
        <time>2017-02-07T13:49:27.617Z</time>
      </trkpt>
      <trkpt lat="48.76431" lon="2.24037">
        <ele>170.003</ele>
        <time>2017-02-07T13:49:35.306Z</time>
      </trkpt>
      <trkpt lat="48.76423" lon="2.24043">
        <ele>170.41</ele>
        <time>2017-02-07T13:49:42.698Z</time>
      </trkpt>
      <trkpt lat="48.76415" lon="2.24051">
        <ele>171.581</ele>
        <time>2017-02-07T13:49:50.637Z</time>
      </trkpt>
      <trkpt lat="48.76407" lon="2.2406">
        <ele>172.882</ele>
        <time>2017-02-07T13:50:00.330Z</time>
      </trkpt>
      <trkpt lat="48.76398" lon="2.24066">
        <ele>173.633</ele>
        <time>2017-02-07T13:50:09.934Z</time>
      </trkpt>
      <trkpt lat="48.76389" lon="2.24073">
        <ele>173.859</ele>
        <time>2017-02-07T13:50:19.572Z</time>
      </trkpt>
      <trkpt lat="48.76379" lon="2.24075">
        <ele>173.897</ele>
        <time>2017-02-07T13:50:29.164Z</time>
      </trkpt>
      <trkpt lat="48.7637" lon="2.24071">
        <ele>174.006</ele>
        <time>2017-02-07T13:50:36.933Z</time>
      </trkpt>
      <trkpt lat="48.76362" lon="2.24063">
        <ele>174.222</ele>
        <time>2017-02-07T13:50:44.993Z</time>
      </trkpt>
      <trkpt lat="48.76354" lon="2.24054">
        <ele>174.44</ele>
        <time>2017-02-07T13:50:53.419Z</time>
      </trkpt>
      <trkpt lat="48.76346" lon="2.24046">
        <ele>174.568</ele>
        <time>2017-02-07T13:51:01.594Z</time>
      </trkpt>
      <trkpt lat="48.76339" lon="2.24037">
        <ele>174.591</ele>
        <time>2017-02-07T13:51:09.631Z</time>
      </trkpt>
      <trkpt lat="48.7633" lon="2.24028">
        <ele>174.511</ele>
        <time>2017-02-07T13:51:18.306Z</time>
      </trkpt>
      <trkpt lat="48.76322" lon="2.2402">
        <ele>174.358</ele>
        <time>2017-02-07T13:51:27.272Z</time>
      </trkpt>
      <trkpt lat="48.76314" lon="2.24013">
        <ele>174.223</ele>
        <time>2017-02-07T13:51:36.679Z</time>
      </trkpt>
      <trkpt lat="48.76308" lon="2.24003">
        <ele>174.164</ele>
        <time>2017-02-07T13:51:44.174Z</time>
      </trkpt>
      <trkpt lat="48.763" lon="2.23994">
        <ele>174.127</ele>
        <time>2017-02-07T13:51:50.399Z</time>
      </trkpt>
      <trkpt lat="48.76293" lon="2.23985">
        <ele>174.067</ele>
        <time>2017-02-07T13:51:56.625Z</time>
      </trkpt>
      <trkpt lat="48.76286" lon="2.23975">
        <ele>174.069</ele>
        <time>2017-02-07T13:52:04.144Z</time>
      </trkpt>
      <trkpt lat="48.76279" lon="2.23966">
        <ele>174.189</ele>
        <time>2017-02-07T13:52:12.323Z</time>
      </trkpt>
      <trkpt lat="48.76272" lon="2.23957">
        <ele>174.29</ele>
        <time>2017-02-07T13:52:20.994Z</time>
      </trkpt>
      <trkpt lat="48.76264" lon="2.23946">
        <ele>174.252</ele>
        <time>2017-02-07T13:52:29.463Z</time>
      </trkpt>
      <trkpt lat="48.76257" lon="2.23938">
        <ele>174.139</ele>
        <time>2017-02-07T13:52:37.098Z</time>
      </trkpt>
      <trkpt lat="48.76249" lon="2.23929">
        <ele>174.07</ele>
        <time>2017-02-07T13:52:45.548Z</time>
      </trkpt>
      <trkpt lat="48.76242" lon="2.23921">
        <ele>174.093</ele>
        <time>2017-02-07T13:52:53.415Z</time>
      </trkpt>
      <trkpt lat="48.76234" lon="2.23912">
        <ele>174.198</ele>
        <time>2017-02-07T13:53:01.599Z</time>
      </trkpt>
      <trkpt lat="48.76226" lon="2.23904">
        <ele>174.562</ele>
        <time>2017-02-07T13:53:10.883Z</time>
      </trkpt>
      <trkpt lat="48.76219" lon="2.23895">
        <ele>175.44</ele>
        <time>2017-02-07T13:53:19.926Z</time>
      </trkpt>
      <trkpt lat="48.76211" lon="2.23886">
        <ele>176.658</ele>
        <time>2017-02-07T13:53:28.200Z</time>
      </trkpt>
      <trkpt lat="48.76203" lon="2.23878">
        <ele>177.694</ele>
        <time>2017-02-07T13:53:35.860Z</time>
      </trkpt>
      <trkpt lat="48.76195" lon="2.23871">
        <ele>178.226</ele>
        <time>2017-02-07T13:53:43.779Z</time>
      </trkpt>
      <trkpt lat="48.76188" lon="2.2386">
        <ele>178.255</ele>
        <time>2017-02-07T13:53:52.351Z</time>
      </trkpt>
      <trkpt lat="48.76181" lon="2.23851">
        <ele>177.989</ele>
        <time>2017-02-07T13:54:01.086Z</time>
      </trkpt>
      <trkpt lat="48.76174" lon="2.2384">
        <ele>177.806</ele>
        <time>2017-02-07T13:54:09.830Z</time>
      </trkpt>
      <trkpt lat="48.76166" lon="2.23833">
        <ele>177.932</ele>
        <time>2017-02-07T13:54:18.280Z</time>
      </trkpt>
      <trkpt lat="48.76159" lon="2.23823">
        <ele>178.199</ele>
        <time>2017-02-07T13:54:26.411Z</time>
      </trkpt>
      <trkpt lat="48.76148" lon="2.23812">
        <ele>178.487</ele>
        <time>2017-02-07T13:54:38.437Z</time>
      </trkpt>
      <trkpt lat="48.7614" lon="2.23803">
        <ele>178.835</ele>
        <time>2017-02-07T13:54:46.468Z</time>
      </trkpt>
      <trkpt lat="48.76132" lon="2.23793">
        <ele>179.247</ele>
        <time>2017-02-07T13:54:54.959Z</time>
      </trkpt>
      <trkpt lat="48.76123" lon="2.23788">
        <ele>179.674</ele>
        <time>2017-02-07T13:55:03.924Z</time>
      </trkpt>
      <trkpt lat="48.76115" lon="2.23782">
        <ele>179.992</ele>
        <time>2017-02-07T13:55:11.539Z</time>
      </trkpt>
      <trkpt lat="48.76108" lon="2.23774">
        <ele>180.194</ele>
        <time>2017-02-07T13:55:18.898Z</time>
      </trkpt>
      <trkpt lat="48.76101" lon="2.23763">
        <ele>180.416</ele>
        <time>2017-02-07T13:55:27.699Z</time>
      </trkpt>
      <trkpt lat="48.76095" lon="2.23753">
        <ele>180.65</ele>
        <time>2017-02-07T13:55:36.038Z</time>
      </trkpt>
      <trkpt lat="48.76087" lon="2.23743">
        <ele>180.886</ele>
        <time>2017-02-07T13:55:45.404Z</time>
      </trkpt>
      <trkpt lat="48.76079" lon="2.23734">
        <ele>181.14</ele>
        <time>2017-02-07T13:55:54.588Z</time>
      </trkpt>
      <trkpt lat="48.76076" lon="2.23721">
        <ele>181.279</ele>
        <time>2017-02-07T13:56:02.373Z</time>
      </trkpt>
      <trkpt lat="48.76076" lon="2.23706">
        <ele>181.196</ele>
        <time>2017-02-07T13:56:10.140Z</time>
      </trkpt>
      <trkpt lat="48.76077" lon="2.23691">
        <ele>180.929</ele>
        <time>2017-02-07T13:56:18.457Z</time>
      </trkpt>
      <trkpt lat="48.76078" lon="2.23677">
        <ele>180.605</ele>
        <time>2017-02-07T13:56:27.381Z</time>
      </trkpt>
      <trkpt lat="48.76081" lon="2.23663">
        <ele>180.371</ele>
        <time>2017-02-07T13:56:36.716Z</time>
      </trkpt>
      <trkpt lat="48.76084" lon="2.23649">
        <ele>180.255</ele>
        <time>2017-02-07T13:56:46.445Z</time>
      </trkpt>
      <trkpt lat="48.76085" lon="2.23635">
        <ele>180.121</ele>
        <time>2017-02-07T13:56:54.540Z</time>
      </trkpt>
      <trkpt lat="48.76088" lon="2.23621">
        <ele>179.867</ele>
        <time>2017-02-07T13:57:03.361Z</time>
      </trkpt>
      <trkpt lat="48.7609" lon="2.23608">
        <ele>179.548</ele>
        <time>2017-02-07T13:57:12.271Z</time>
      </trkpt>
      <trkpt lat="48.76093" lon="2.23593">
        <ele>179.277</ele>
        <time>2017-02-07T13:57:22.131Z</time>
      </trkpt>
      <trkpt lat="48.76096" lon="2.23578">
        <ele>179.102</ele>
        <time>2017-02-07T13:57:30.718Z</time>
      </trkpt>
      <trkpt lat="48.761" lon="2.23565">
        <ele>178.965</ele>
        <time>2017-02-07T13:57:39.057Z</time>
      </trkpt>
      <trkpt lat="48.761" lon="2.2355">
        <ele>178.742</ele>
        <time>2017-02-07T13:57:47.594Z</time>
      </trkpt>
      <trkpt lat="48.76101" lon="2.23535">
        <ele>178.416</ele>
        <time>2017-02-07T13:57:56.042Z</time>
      </trkpt>
      <trkpt lat="48.76105" lon="2.23521">
        <ele>178.106</ele>
        <time>2017-02-07T13:58:04.164Z</time>
      </trkpt>
      <trkpt lat="48.76106" lon="2.23506">
        <ele>177.856</ele>
        <time>2017-02-07T13:58:12.677Z</time>
      </trkpt>
      <trkpt lat="48.76111" lon="2.23494">
        <ele>177.598</ele>
        <time>2017-02-07T13:58:21.087Z</time>
      </trkpt>
      <trkpt lat="48.76113" lon="2.2348">
        <ele>177.364</ele>
        <time>2017-02-07T13:58:29.529Z</time>
      </trkpt>
      <trkpt lat="48.76117" lon="2.23466">
        <ele>177.217</ele>
        <time>2017-02-07T13:58:38.107Z</time>
      </trkpt>
      <trkpt lat="48.7612" lon="2.23451">
        <ele>177.125</ele>
        <time>2017-02-07T13:58:47.318Z</time>
      </trkpt>
      <trkpt lat="48.76123" lon="2.23437">
        <ele>177.066</ele>
        <time>2017-02-07T13:58:56.413Z</time>
      </trkpt>
      <trkpt lat="48.76127" lon="2.23425">
        <ele>177.091</ele>
        <time>2017-02-07T13:59:04.618Z</time>
      </trkpt>
      <trkpt lat="48.7613" lon="2.23411">
        <ele>177.214</ele>
        <time>2017-02-07T13:59:13.215Z</time>
      </trkpt>
      <trkpt lat="48.76132" lon="2.23397">
        <ele>177.25</ele>
        <time>2017-02-07T13:59:22.052Z</time>
      </trkpt>
      <trkpt lat="48.76134" lon="2.23381">
        <ele>177.016</ele>
        <time>2017-02-07T13:59:31.184Z</time>
      </trkpt>
      <trkpt lat="48.76136" lon="2.23368">
        <ele>176.546</ele>
        <time>2017-02-07T13:59:39.128Z</time>
      </trkpt>
      <trkpt lat="48.76139" lon="2.23353">
        <ele>175.989</ele>
        <time>2017-02-07T13:59:48.643Z</time>
      </trkpt>
      <trkpt lat="48.76141" lon="2.23338">
        <ele>175.456</ele>
        <time>2017-02-07T13:59:58.512Z</time>
      </trkpt>
      <trkpt lat="48.76144" lon="2.23323">
        <ele>175.007</ele>
        <time>2017-02-07T14:00:06.361Z</time>
      </trkpt>
      <trkpt lat="48.76144" lon="2.23308">
        <ele>174.626</ele>
        <time>2017-02-07T14:00:13.610Z</time>
      </trkpt>
      <trkpt lat="48.7614" lon="2.23295">
        <ele>174.168</ele>
        <time>2017-02-07T14:00:20.776Z</time>
      </trkpt>
      <trkpt lat="48.76135" lon="2.23282">
        <ele>173.594</ele>
        <time>2017-02-07T14:00:28.579Z</time>
      </trkpt>
      <trkpt lat="48.76128" lon="2.23273">
        <ele>173.134</ele>
        <time>2017-02-07T14:00:35.856Z</time>
      </trkpt>
      <trkpt lat="48.76118" lon="2.2327">
        <ele>172.931</ele>
        <time>2017-02-07T14:00:44.059Z</time>
      </trkpt>
      <trkpt lat="48.76112" lon="2.23259">
        <ele>172.807</ele>
        <time>2017-02-07T14:00:52.815Z</time>
      </trkpt>
      <trkpt lat="48.76107" lon="2.23247">
        <ele>172.494</ele>
        <time>2017-02-07T14:01:02.334Z</time>
      </trkpt>
      <trkpt lat="48.761" lon="2.23237">
        <ele>171.995</ele>
        <time>2017-02-07T14:01:14.120Z</time>
      </trkpt>
      <trkpt lat="48.76093" lon="2.23228">
        <ele>171.493</ele>
        <time>2017-02-07T14:01:24.161Z</time>
      </trkpt>
      <trkpt lat="48.76086" lon="2.2322">
        <ele>171.069</ele>
        <time>2017-02-07T14:01:33.414Z</time>
      </trkpt>
      <trkpt lat="48.7608" lon="2.23208">
        <ele>170.886</ele>
        <time>2017-02-07T14:01:42.241Z</time>
      </trkpt>
      <trkpt lat="48.76072" lon="2.23201">
        <ele>171.052</ele>
        <time>2017-02-07T14:01:50.212Z</time>
      </trkpt>
      <trkpt lat="48.76065" lon="2.23189">
        <ele>171.336</ele>
        <time>2017-02-07T14:01:58.320Z</time>
      </trkpt>
      <trkpt lat="48.76058" lon="2.23179">
        <ele>171.502</ele>
        <time>2017-02-07T14:02:06.644Z</time>
      </trkpt>
      <trkpt lat="48.7605" lon="2.23171">
        <ele>171.529</ele>
        <time>2017-02-07T14:02:15.805Z</time>
      </trkpt>
      <trkpt lat="48.76042" lon="2.23163">
        <ele>171.524</ele>
        <time>2017-02-07T14:02:25.266Z</time>
      </trkpt>
      <trkpt lat="48.76035" lon="2.23153">
        <ele>171.576</ele>
        <time>2017-02-07T14:02:33.590Z</time>
      </trkpt>
      <trkpt lat="48.76028" lon="2.23143">
        <ele>171.686</ele>
        <time>2017-02-07T14:02:41.922Z</time>
      </trkpt>
      <trkpt lat="48.7602" lon="2.23136">
        <ele>171.808</ele>
        <time>2017-02-07T14:02:49.897Z</time>
      </trkpt>
      <trkpt lat="48.76013" lon="2.23127">
        <ele>171.892</ele>
        <time>2017-02-07T14:02:57.904Z</time>
      </trkpt>
      <trkpt lat="48.76005" lon="2.23118">
        <ele>171.921</ele>
        <time>2017-02-07T14:03:05.782Z</time>
      </trkpt>
      <trkpt lat="48.75998" lon="2.23107">
        <ele>171.918</ele>
        <time>2017-02-07T14:03:14.122Z</time>
      </trkpt>
      <trkpt lat="48.75992" lon="2.23097">
        <ele>171.922</ele>
        <time>2017-02-07T14:03:22.636Z</time>
      </trkpt>
      <trkpt lat="48.75985" lon="2.23086">
        <ele>171.979</ele>
        <time>2017-02-07T14:03:32.142Z</time>
      </trkpt>
      <trkpt lat="48.75979" lon="2.23075">
        <ele>172.098</ele>
        <time>2017-02-07T14:03:40.851Z</time>
      </trkpt>
      <trkpt lat="48.75976" lon="2.23061">
        <ele>172.257</ele>
        <time>2017-02-07T14:03:50.052Z</time>
      </trkpt>
      <trkpt lat="48.7597" lon="2.23049">
        <ele>172.414</ele>
        <time>2017-02-07T14:03:59.098Z</time>
      </trkpt>
      <trkpt lat="48.75965" lon="2.23036">
        <ele>172.507</ele>
        <time>2017-02-07T14:04:07.383Z</time>
      </trkpt>
      <trkpt lat="48.7596" lon="2.23023">
        <ele>172.446</ele>
        <time>2017-02-07T14:04:16.261Z</time>
      </trkpt>
      <trkpt lat="48.75956" lon="2.23009">
        <ele>172.213</ele>
        <time>2017-02-07T14:04:25.103Z</time>
      </trkpt>
      <trkpt lat="48.75951" lon="2.22997">
        <ele>171.934</ele>
        <time>2017-02-07T14:04:33.611Z</time>
      </trkpt>
      <trkpt lat="48.75946" lon="2.22985">
        <ele>171.756</ele>
        <time>2017-02-07T14:04:42.190Z</time>
      </trkpt>
      <trkpt lat="48.75939" lon="2.22975">
        <ele>171.743</ele>
        <time>2017-02-07T14:04:50.594Z</time>
      </trkpt>
      <trkpt lat="48.75935" lon="2.22962">
        <ele>171.898</ele>
        <time>2017-02-07T14:04:58.903Z</time>
      </trkpt>
      <trkpt lat="48.7593" lon="2.22949">
        <ele>172.12</ele>
        <time>2017-02-07T14:05:07.400Z</time>
      </trkpt>
      <trkpt lat="48.75925" lon="2.22938">
        <ele>172.279</ele>
        <time>2017-02-07T14:05:16.292Z</time>
      </trkpt>
      <trkpt lat="48.75919" lon="2.22926">
        <ele>172.3</ele>
        <time>2017-02-07T14:05:24.943Z</time>
      </trkpt>
      <trkpt lat="48.7591" lon="2.2292">
        <ele>172.136</ele>
        <time>2017-02-07T14:05:33.523Z</time>
      </trkpt>
      <trkpt lat="48.75903" lon="2.2291">
        <ele>171.776</ele>
        <time>2017-02-07T14:05:41.577Z</time>
      </trkpt>
      <trkpt lat="48.75897" lon="2.22901">
        <ele>171.34</ele>
        <time>2017-02-07T14:05:49.593Z</time>
      </trkpt>
      <trkpt lat="48.75889" lon="2.22893">
        <ele>170.942</ele>
        <time>2017-02-07T14:05:57.843Z</time>
      </trkpt>
      <trkpt lat="48.75882" lon="2.22882">
        <ele>170.6</ele>
        <time>2017-02-07T14:06:06.341Z</time>
      </trkpt>
      <trkpt lat="48.75874" lon="2.22874">
        <ele>170.369</ele>
        <time>2017-02-07T14:06:14.255Z</time>
      </trkpt>
      <trkpt lat="48.75867" lon="2.22865">
        <ele>170.292</ele>
        <time>2017-02-07T14:06:21.854Z</time>
      </trkpt>
      <trkpt lat="48.75858" lon="2.22857">
        <ele>170.28</ele>
        <time>2017-02-07T14:06:30.126Z</time>
      </trkpt>
      <trkpt lat="48.75851" lon="2.22849">
        <ele>170.249</ele>
        <time>2017-02-07T14:06:39.189Z</time>
      </trkpt>
      <trkpt lat="48.75844" lon="2.2284">
        <ele>170.051</ele>
        <time>2017-02-07T14:06:48.191Z</time>
      </trkpt>
      <trkpt lat="48.75838" lon="2.22829">
        <ele>169.627</ele>
        <time>2017-02-07T14:06:56.111Z</time>
      </trkpt>
      <trkpt lat="48.7583" lon="2.22821">
        <ele>169.215</ele>
        <time>2017-02-07T14:07:04.496Z</time>
      </trkpt>
      <trkpt lat="48.75823" lon="2.22811">
        <ele>169.018</ele>
        <time>2017-02-07T14:07:13.528Z</time>
      </trkpt>
      <trkpt lat="48.75817" lon="2.228">
        <ele>168.945</ele>
        <time>2017-02-07T14:07:22.352Z</time>
      </trkpt>
      <trkpt lat="48.75809" lon="2.22791">
        <ele>168.876</ele>
        <time>2017-02-07T14:07:30.424Z</time>
      </trkpt>
      <trkpt lat="48.75803" lon="2.22781">
        <ele>168.686</ele>
        <time>2017-02-07T14:07:38.685Z</time>
      </trkpt>
      <trkpt lat="48.75796" lon="2.22771">
        <ele>168.253</ele>
        <time>2017-02-07T14:07:47.165Z</time>
      </trkpt>
      <trkpt lat="48.75789" lon="2.22762">
        <ele>167.67</ele>
        <time>2017-02-07T14:07:56.367Z</time>
      </trkpt>
      <trkpt lat="48.75781" lon="2.22754">
        <ele>167.139</ele>
        <time>2017-02-07T14:08:04.307Z</time>
      </trkpt>
      <trkpt lat="48.75773" lon="2.22744">
        <ele>166.656</ele>
        <time>2017-02-07T14:08:12.849Z</time>
      </trkpt>
      <trkpt lat="48.75766" lon="2.22737">
        <ele>166.028</ele>
        <time>2017-02-07T14:08:20.575Z</time>
      </trkpt>
      <trkpt lat="48.75757" lon="2.22731">
        <ele>165.123</ele>
        <time>2017-02-07T14:08:28.143Z</time>
      </trkpt>
      <trkpt lat="48.75748" lon="2.22724">
        <ele>164.158</ele>
        <time>2017-02-07T14:08:36.537Z</time>
      </trkpt>
      <trkpt lat="48.75739" lon="2.22718">
        <ele>163.544</ele>
        <time>2017-02-07T14:08:44.648Z</time>
      </trkpt>
      <trkpt lat="48.7573" lon="2.22714">
        <ele>163.378</ele>
        <time>2017-02-07T14:08:52.413Z</time>
      </trkpt>
      <trkpt lat="48.75723" lon="2.22705">
        <ele>163.395</ele>
        <time>2017-02-07T14:09:00.889Z</time>
      </trkpt>
      <trkpt lat="48.75714" lon="2.22698">
        <ele>163.363</ele>
        <time>2017-02-07T14:09:10.085Z</time>
      </trkpt>
      <trkpt lat="48.75705" lon="2.22696">
        <ele>163.152</ele>
        <time>2017-02-07T14:09:19.602Z</time>
      </trkpt>
      <trkpt lat="48.75697" lon="2.22704">
        <ele>162.767</ele>
        <time>2017-02-07T14:09:31.551Z</time>
      </trkpt>
      <trkpt lat="48.75692" lon="2.22716">
        <ele>162.531</ele>
        <time>2017-02-07T14:09:43.989Z</time>
      </trkpt>
      <trkpt lat="48.75688" lon="2.22729">
        <ele>162.789</ele>
        <time>2017-02-07T14:09:55.882Z</time>
      </trkpt>
      <trkpt lat="48.75683" lon="2.22742">
        <ele>163.568</ele>
        <time>2017-02-07T14:10:07.137Z</time>
      </trkpt>
      <trkpt lat="48.75678" lon="2.22755">
        <ele>164.606</ele>
        <time>2017-02-07T14:10:18.507Z</time>
      </trkpt>
      <trkpt lat="48.75674" lon="2.22767">
        <ele>165.49</ele>
        <time>2017-02-07T14:10:28.714Z</time>
      </trkpt>
      <trkpt lat="48.75669" lon="2.2278">
        <ele>165.984</ele>
        <time>2017-02-07T14:10:38.220Z</time>
      </trkpt>
      <trkpt lat="48.75666" lon="2.22794">
        <ele>166.173</ele>
        <time>2017-02-07T14:10:45.867Z</time>
      </trkpt>
      <trkpt lat="48.7566" lon="2.22804">
        <ele>166.131</ele>
        <time>2017-02-07T14:10:53.694Z</time>
      </trkpt>
      <trkpt lat="48.75655" lon="2.22817">
        <ele>165.92</ele>
        <time>2017-02-07T14:11:02.323Z</time>
      </trkpt>
      <trkpt lat="48.7565" lon="2.22829">
        <ele>165.726</ele>
        <time>2017-02-07T14:11:10.754Z</time>
      </trkpt>
      <trkpt lat="48.75648" lon="2.22844">
        <ele>165.679</ele>
        <time>2017-02-07T14:11:18.544Z</time>
      </trkpt>
      <trkpt lat="48.75644" lon="2.22857">
        <ele>165.665</ele>
        <time>2017-02-07T14:11:25.863Z</time>
      </trkpt>
      <trkpt lat="48.7564" lon="2.2287">
        <ele>165.509</ele>
        <time>2017-02-07T14:11:34.141Z</time>
      </trkpt>
      <trkpt lat="48.75635" lon="2.22882">
        <ele>165.18</ele>
        <time>2017-02-07T14:11:42.685Z</time>
      </trkpt>
      <trkpt lat="48.75629" lon="2.22895">
        <ele>164.807</ele>
        <time>2017-02-07T14:11:51.093Z</time>
      </trkpt>
      <trkpt lat="48.75623" lon="2.22906">
        <ele>164.499</ele>
        <time>2017-02-07T14:11:59.703Z</time>
      </trkpt>
      <trkpt lat="48.75617" lon="2.2292">
        <ele>164.256</ele>
        <time>2017-02-07T14:12:08.253Z</time>
      </trkpt>
      <trkpt lat="48.75614" lon="2.22933">
        <ele>164.03</ele>
        <time>2017-02-07T14:12:16.000Z</time>
      </trkpt>
      <trkpt lat="48.75614" lon="2.22933">
        <ele>163.834</ele>
        <time>2017-02-07T14:12:19.002Z</time>
      </trkpt>
      <trkpt lat="48.75614" lon="2.22933">
        <ele>163.715</ele>
        <time>2017-02-07T14:12:28.511Z</time>
      </trkpt>
      <trkpt lat="48.75605" lon="2.22948">
        <ele>163.699</ele>
        <time>2017-02-07T14:12:50.734Z</time>
      </trkpt>
      <trkpt lat="48.756" lon="2.2296">
        <ele>163.726</ele>
        <time>2017-02-07T14:13:00.085Z</time>
      </trkpt>
      <trkpt lat="48.75595" lon="2.22973">
        <ele>163.712</ele>
        <time>2017-02-07T14:13:09.650Z</time>
      </trkpt>
      <trkpt lat="48.75591" lon="2.22986">
        <ele>163.552</ele>
        <time>2017-02-07T14:13:18.227Z</time>
      </trkpt>
      <trkpt lat="48.75585" lon="2.22998">
        <ele>163.221</ele>
        <time>2017-02-07T14:13:27.158Z</time>
      </trkpt>
      <trkpt lat="48.75582" lon="2.23011">
        <ele>162.856</ele>
        <time>2017-02-07T14:13:34.763Z</time>
      </trkpt>
      <trkpt lat="48.75577" lon="2.23024">
        <ele>162.601</ele>
        <time>2017-02-07T14:13:42.227Z</time>
      </trkpt>
      <trkpt lat="48.75571" lon="2.23037">
        <ele>162.56</ele>
        <time>2017-02-07T14:13:49.912Z</time>
      </trkpt>
      <trkpt lat="48.75566" lon="2.23049">
        <ele>162.75</ele>
        <time>2017-02-07T14:13:57.581Z</time>
      </trkpt>
      <trkpt lat="48.75563" lon="2.23062">
        <ele>162.985</ele>
        <time>2017-02-07T14:14:06.280Z</time>
      </trkpt>
      <trkpt lat="48.7556" lon="2.23075">
        <ele>163.103</ele>
        <time>2017-02-07T14:14:14.215Z</time>
      </trkpt>
      <trkpt lat="48.75555" lon="2.23087">
        <ele>163.207</ele>
        <time>2017-02-07T14:14:22.436Z</time>
      </trkpt>
      <trkpt lat="48.75551" lon="2.23101">
        <ele>163.419</ele>
        <time>2017-02-07T14:14:31.253Z</time>
      </trkpt>
      <trkpt lat="48.75546" lon="2.23114">
        <ele>163.727</ele>
        <time>2017-02-07T14:14:40.212Z</time>
      </trkpt>
      <trkpt lat="48.7554" lon="2.23126">
        <ele>164.084</ele>
        <time>2017-02-07T14:14:49.095Z</time>
      </trkpt>
      <trkpt lat="48.75535" lon="2.2314">
        <ele>164.412</ele>
        <time>2017-02-07T14:14:57.341Z</time>
      </trkpt>
      <trkpt lat="48.75531" lon="2.23152">
        <ele>164.685</ele>
        <time>2017-02-07T14:15:05.388Z</time>
      </trkpt>
      <trkpt lat="48.75525" lon="2.23163">
        <ele>164.948</ele>
        <time>2017-02-07T14:15:14.003Z</time>
      </trkpt>
      <trkpt lat="48.7552" lon="2.23175">
        <ele>165.142</ele>
        <time>2017-02-07T14:15:22.330Z</time>
      </trkpt>
      <trkpt lat="48.75518" lon="2.23189">
        <ele>165.244</ele>
        <time>2017-02-07T14:15:30.545Z</time>
      </trkpt>
      <trkpt lat="48.75514" lon="2.23202">
        <ele>165.437</ele>
        <time>2017-02-07T14:15:38.570Z</time>
      </trkpt>
      <trkpt lat="48.7551" lon="2.23215">
        <ele>165.802</ele>
        <time>2017-02-07T14:15:46.737Z</time>
      </trkpt>
      <trkpt lat="48.75508" lon="2.23229">
        <ele>166.088</ele>
        <time>2017-02-07T14:15:56.082Z</time>
      </trkpt>
      <trkpt lat="48.75501" lon="2.23239">
        <ele>166.11</ele>
        <time>2017-02-07T14:16:05.816Z</time>
      </trkpt>
      <trkpt lat="48.75497" lon="2.23252">
        <ele>166.018</ele>
        <time>2017-02-07T14:16:15.306Z</time>
      </trkpt>
      <trkpt lat="48.75489" lon="2.23264">
        <ele>165.999</ele>
        <time>2017-02-07T14:16:24.500Z</time>
      </trkpt>
      <trkpt lat="48.75482" lon="2.23275">
        <ele>166.046</ele>
        <time>2017-02-07T14:16:31.148Z</time>
      </trkpt>
      <trkpt lat="48.75477" lon="2.23286">
        <ele>166.046</ele>
        <time>2017-02-07T14:16:37.495Z</time>
      </trkpt>
      <trkpt lat="48.75471" lon="2.23297">
        <ele>165.966</ele>
        <time>2017-02-07T14:16:45.548Z</time>
      </trkpt>
      <trkpt lat="48.75464" lon="2.23306">
        <ele>165.872</ele>
        <time>2017-02-07T14:16:54.270Z</time>
      </trkpt>
      <trkpt lat="48.75457" lon="2.23316">
        <ele>165.81</ele>
        <time>2017-02-07T14:17:03.000Z</time>
      </trkpt>
      <trkpt lat="48.75457" lon="2.23316">
        <ele>165.759</ele>
        <time>2017-02-07T14:17:08.000Z</time>
      </trkpt>
      <trkpt lat="48.75457" lon="2.23316">
        <ele>165.687</ele>
        <time>2017-02-07T14:17:09.473Z</time>
      </trkpt>
      <trkpt lat="48.75449" lon="2.23322">
        <ele>165.61</ele>
        <time>2017-02-07T14:17:23.933Z</time>
      </trkpt>
      <trkpt lat="48.75446" lon="2.23335">
        <ele>165.327</ele>
        <time>2017-02-07T14:17:33.000Z</time>
      </trkpt>
      <trkpt lat="48.75446" lon="2.23335">
        <ele>164.692</ele>
        <time>2017-02-07T14:17:34.000Z</time>
      </trkpt>
      <trkpt lat="48.75446" lon="2.23335">
        <ele>164.148</ele>
        <time>2017-02-07T14:22:10.840Z</time>
      </trkpt>
      <trkpt lat="48.75446" lon="2.23335">
        <ele>164.294</ele>
        <time>2017-02-07T14:22:25.000Z</time>
      </trkpt>
      <trkpt lat="48.75446" lon="2.23335">
        <ele>164.408</ele>
        <time>2017-02-07T14:25:50.557Z</time>
      </trkpt>
      <trkpt lat="48.75436" lon="2.23346">
        <ele>164.306</ele>
        <time>2017-02-07T14:26:07.821Z</time>
      </trkpt>
      <trkpt lat="48.75439" lon="2.23359">
        <ele>163.25</ele>
        <time>2017-02-07T14:26:16.000Z</time>
      </trkpt>
      <trkpt lat="48.75439" lon="2.23359">
        <ele>160.904</ele>
        <time>2017-02-07T14:26:18.000Z</time>
      </trkpt>
      <trkpt lat="48.75439" lon="2.23359">
        <ele>158.999</ele>
        <time>2017-02-07T14:26:18.100Z</time>
      </trkpt>
      <trkpt lat="48.75436" lon="2.23343">
        <ele>159.897</ele>
        <time>2017-02-07T14:26:57.000Z</time>
      </trkpt>
      <trkpt lat="48.75436" lon="2.23343">
        <ele>160.458</ele>
        <time>2017-02-07T14:27:11.000Z</time>
      </trkpt>
      <trkpt lat="48.75436" lon="2.23343">
        <ele>160.36</ele>
        <time>2017-02-07T14:28:50.000Z</time>
      </trkpt>
      <trkpt lat="48.75436" lon="2.23343">
        <ele>160.051</ele>
        <time>2017-02-07T14:29:02.539Z</time>
      </trkpt>
      <trkpt lat="48.7543" lon="2.23355">
        <ele>160.053</ele>
        <time>2017-02-07T14:29:17.048Z</time>
      </trkpt>
      <trkpt lat="48.75423" lon="2.23362">
        <ele>159.873</ele>
        <time>2017-02-07T14:29:24.659Z</time>
      </trkpt>
      <trkpt lat="48.75416" lon="2.23372">
        <ele>159.186</ele>
        <time>2017-02-07T14:29:31.483Z</time>
      </trkpt>
      <trkpt lat="48.75412" lon="2.23385">
        <ele>158.403</ele>
        <time>2017-02-07T14:29:38.420Z</time>
      </trkpt>
      <trkpt lat="48.75416" lon="2.23399">
        <ele>158.004</ele>
        <time>2017-02-07T14:29:45.631Z</time>
      </trkpt>
      <trkpt lat="48.75415" lon="2.23413">
        <ele>158.007</ele>
        <time>2017-02-07T14:29:52.442Z</time>
      </trkpt>
      <trkpt lat="48.75412" lon="2.23427">
        <ele>158.341</ele>
        <time>2017-02-07T14:30:00.058Z</time>
      </trkpt>
      <trkpt lat="48.75414" lon="2.23442">
        <ele>158.878</ele>
        <time>2017-02-07T14:30:07.239Z</time>
      </trkpt>
      <trkpt lat="48.75416" lon="2.23456">
        <ele>159.394</ele>
        <time>2017-02-07T14:30:12.752Z</time>
      </trkpt>
      <trkpt lat="48.75418" lon="2.23471">
        <ele>159.74</ele>
        <time>2017-02-07T14:30:18.357Z</time>
      </trkpt>
      <trkpt lat="48.75415" lon="2.23484">
        <ele>159.984</ele>
        <time>2017-02-07T14:30:24.555Z</time>
      </trkpt>
      <trkpt lat="48.7541" lon="2.23497">
        <ele>160.309</ele>
        <time>2017-02-07T14:30:32.156Z</time>
      </trkpt>
      <trkpt lat="48.75412" lon="2.23512">
        <ele>160.77</ele>
        <time>2017-02-07T14:30:39.621Z</time>
      </trkpt>
      <trkpt lat="48.75409" lon="2.23526">
        <ele>161.205</ele>
        <time>2017-02-07T14:30:47.159Z</time>
      </trkpt>
      <trkpt lat="48.75411" lon="2.2354">
        <ele>161.528</ele>
        <time>2017-02-07T14:30:54.500Z</time>
      </trkpt>
      <trkpt lat="48.75412" lon="2.23555">
        <ele>161.782</ele>
        <time>2017-02-07T14:31:02.454Z</time>
      </trkpt>
      <trkpt lat="48.75413" lon="2.23569">
        <ele>161.969</ele>
        <time>2017-02-07T14:31:09.290Z</time>
      </trkpt>
      <trkpt lat="48.75416" lon="2.23583">
        <ele>162.1</ele>
        <time>2017-02-07T14:31:16.605Z</time>
      </trkpt>
      <trkpt lat="48.75418" lon="2.23597">
        <ele>162.238</ele>
        <time>2017-02-07T14:31:24.149Z</time>
      </trkpt>
      <trkpt lat="48.75419" lon="2.23612">
        <ele>162.43</ele>
        <time>2017-02-07T14:31:32.353Z</time>
      </trkpt>
      <trkpt lat="48.75422" lon="2.23627">
        <ele>162.706</ele>
        <time>2017-02-07T14:31:39.900Z</time>
      </trkpt>
      <trkpt lat="48.75418" lon="2.2364">
        <ele>163.009</ele>
        <time>2017-02-07T14:31:46.811Z</time>
      </trkpt>
      <trkpt lat="48.7542" lon="2.23654">
        <ele>163.262</ele>
        <time>2017-02-07T14:31:53.366Z</time>
      </trkpt>
      <trkpt lat="48.7542" lon="2.23667">
        <ele>163.523</ele>
        <time>2017-02-07T14:32:00.304Z</time>
      </trkpt>
      <trkpt lat="48.75421" lon="2.23682">
        <ele>163.853</ele>
        <time>2017-02-07T14:32:07.901Z</time>
      </trkpt>
      <trkpt lat="48.75422" lon="2.23696">
        <ele>164.199</ele>
        <time>2017-02-07T14:32:15.070Z</time>
      </trkpt>
      <trkpt lat="48.75424" lon="2.23709">
        <ele>164.491</ele>
        <time>2017-02-07T14:32:22.969Z</time>
      </trkpt>
      <trkpt lat="48.75423" lon="2.23725">
        <ele>164.717</ele>
        <time>2017-02-07T14:32:31.214Z</time>
      </trkpt>
      <trkpt lat="48.7542" lon="2.23738">
        <ele>164.894</ele>
        <time>2017-02-07T14:32:38.441Z</time>
      </trkpt>
      <trkpt lat="48.75422" lon="2.23752">
        <ele>165.032</ele>
        <time>2017-02-07T14:32:45.837Z</time>
      </trkpt>
      <trkpt lat="48.75424" lon="2.23766">
        <ele>165.124</ele>
        <time>2017-02-07T14:32:54.222Z</time>
      </trkpt>
      <trkpt lat="48.75429" lon="2.23779">
        <ele>165.176</ele>
        <time>2017-02-07T14:33:01.739Z</time>
      </trkpt>
      <trkpt lat="48.75429" lon="2.23793">
        <ele>165.255</ele>
        <time>2017-02-07T14:33:09.120Z</time>
      </trkpt>
      <trkpt lat="48.75428" lon="2.23807">
        <ele>165.416</ele>
        <time>2017-02-07T14:33:16.966Z</time>
      </trkpt>
      <trkpt lat="48.75429" lon="2.23821">
        <ele>165.626</ele>
        <time>2017-02-07T14:33:24.508Z</time>
      </trkpt>
      <trkpt lat="48.75427" lon="2.23835">
        <ele>165.853</ele>
        <time>2017-02-07T14:33:32.475Z</time>
      </trkpt>
      <trkpt lat="48.75426" lon="2.2385">
        <ele>166.125</ele>
        <time>2017-02-07T14:33:40.335Z</time>
      </trkpt>
      <trkpt lat="48.75429" lon="2.23863">
        <ele>166.431</ele>
        <time>2017-02-07T14:33:46.975Z</time>
      </trkpt>
      <trkpt lat="48.75423" lon="2.23876">
        <ele>166.747</ele>
        <time>2017-02-07T14:33:53.838Z</time>
      </trkpt>
      <trkpt lat="48.75431" lon="2.23886">
        <ele>167.037</ele>
        <time>2017-02-07T14:34:01.353Z</time>
      </trkpt>
      <trkpt lat="48.75426" lon="2.23898">
        <ele>167.247</ele>
        <time>2017-02-07T14:34:09.549Z</time>
      </trkpt>
      <trkpt lat="48.75431" lon="2.23911">
        <ele>167.408</ele>
        <time>2017-02-07T14:34:18.029Z</time>
      </trkpt>
      <trkpt lat="48.75428" lon="2.23926">
        <ele>167.652</ele>
        <time>2017-02-07T14:34:26.969Z</time>
      </trkpt>
      <trkpt lat="48.75427" lon="2.23939">
        <ele>167.996</ele>
        <time>2017-02-07T14:34:34.128Z</time>
      </trkpt>
      <trkpt lat="48.75426" lon="2.23953">
        <ele>168.314</ele>
        <time>2017-02-07T14:34:41.382Z</time>
      </trkpt>
      <trkpt lat="48.75426" lon="2.23969">
        <ele>168.524</ele>
        <time>2017-02-07T14:34:49.755Z</time>
      </trkpt>
      <trkpt lat="48.75425" lon="2.23983">
        <ele>168.653</ele>
        <time>2017-02-07T14:34:56.956Z</time>
      </trkpt>
      <trkpt lat="48.75426" lon="2.23997">
        <ele>168.756</ele>
        <time>2017-02-07T14:35:03.833Z</time>
      </trkpt>
      <trkpt lat="48.75429" lon="2.24011">
        <ele>168.855</ele>
        <time>2017-02-07T14:35:11.950Z</time>
      </trkpt>
      <trkpt lat="48.75426" lon="2.24026">
        <ele>168.925</ele>
        <time>2017-02-07T14:35:20.933Z</time>
      </trkpt>
      <trkpt lat="48.75426" lon="2.24041">
        <ele>168.998</ele>
        <time>2017-02-07T14:35:28.853Z</time>
      </trkpt>
      <trkpt lat="48.75429" lon="2.24054">
        <ele>169.149</ele>
        <time>2017-02-07T14:35:35.493Z</time>
      </trkpt>
      <trkpt lat="48.75427" lon="2.24069">
        <ele>169.348</ele>
        <time>2017-02-07T14:35:43.760Z</time>
      </trkpt>
      <trkpt lat="48.75426" lon="2.24084">
        <ele>169.537</ele>
        <time>2017-02-07T14:35:55.509Z</time>
      </trkpt>
      <trkpt lat="48.75425" lon="2.24099">
        <ele>169.784</ele>
        <time>2017-02-07T14:36:05.284Z</time>
      </trkpt>
      <trkpt lat="48.75424" lon="2.24114">
        <ele>170.109</ele>
        <time>2017-02-07T14:36:12.249Z</time>
      </trkpt>
      <trkpt lat="48.75427" lon="2.24127">
        <ele>170.378</ele>
        <time>2017-02-07T14:36:19.479Z</time>
      </trkpt>
      <trkpt lat="48.75429" lon="2.24141">
        <ele>170.506</ele>
        <time>2017-02-07T14:36:27.455Z</time>
      </trkpt>
      <trkpt lat="48.75432" lon="2.24154">
        <ele>170.536</ele>
        <time>2017-02-07T14:36:34.604Z</time>
      </trkpt>
      <trkpt lat="48.75431" lon="2.24169">
        <ele>170.548</ele>
        <time>2017-02-07T14:36:42.000Z</time>
      </trkpt>
      <trkpt lat="48.75431" lon="2.24169">
        <ele>170.634</ele>
        <time>2017-02-07T14:36:54.000Z</time>
      </trkpt>
      <trkpt lat="48.75431" lon="2.24169">
        <ele>170.563</ele>
        <time>2017-02-07T14:38:42.770Z</time>
      </trkpt>
      <trkpt lat="48.75418" lon="2.24179">
        <ele>170.466</ele>
        <time>2017-02-07T14:39:08.212Z</time>
      </trkpt>
      <trkpt lat="48.75408" lon="2.24176">
        <ele>170.435</ele>
        <time>2017-02-07T14:39:18.553Z</time>
      </trkpt>
      <trkpt lat="48.75398" lon="2.24177">
        <ele>170.471</ele>
        <time>2017-02-07T14:39:25.433Z</time>
      </trkpt>
      <trkpt lat="48.75388" lon="2.24174">
        <ele>170.547</ele>
        <time>2017-02-07T14:39:32.539Z</time>
      </trkpt>
      <trkpt lat="48.75379" lon="2.24171">
        <ele>170.656</ele>
        <time>2017-02-07T14:39:40.245Z</time>
      </trkpt>
      <trkpt lat="48.7537" lon="2.24169">
        <ele>170.793</ele>
        <time>2017-02-07T14:39:48.238Z</time>
      </trkpt>
      <trkpt lat="48.75362" lon="2.24165">
        <ele>170.981</ele>
        <time>2017-02-07T14:39:55.618Z</time>
      </trkpt>
      <trkpt lat="48.75353" lon="2.24162">
        <ele>171.284</ele>
        <time>2017-02-07T14:40:02.261Z</time>
      </trkpt>
      <trkpt lat="48.75343" lon="2.24158">
        <ele>171.646</ele>
        <time>2017-02-07T14:40:08.712Z</time>
      </trkpt>
      <trkpt lat="48.75334" lon="2.24155">
        <ele>171.939</ele>
        <time>2017-02-07T14:40:14.789Z</time>
      </trkpt>
      <trkpt lat="48.75325" lon="2.24153">
        <ele>172.091</ele>
        <time>2017-02-07T14:40:21.067Z</time>
      </trkpt>
      <trkpt lat="48.75316" lon="2.2415">
        <ele>172.127</ele>
        <time>2017-02-07T14:40:27.234Z</time>
      </trkpt>
      <trkpt lat="48.75307" lon="2.24147">
        <ele>172.133</ele>
        <time>2017-02-07T14:40:33.857Z</time>
      </trkpt>
      <trkpt lat="48.75298" lon="2.24145">
        <ele>172.152</ele>
        <time>2017-02-07T14:40:40.384Z</time>
      </trkpt>
      <trkpt lat="48.75287" lon="2.24142">
        <ele>172.161</ele>
        <time>2017-02-07T14:40:48.329Z</time>
      </trkpt>
      <trkpt lat="48.75278" lon="2.24139">
        <ele>172.148</ele>
        <time>2017-02-07T14:40:56.021Z</time>
      </trkpt>
      <trkpt lat="48.75269" lon="2.24134">
        <ele>172.124</ele>
        <time>2017-02-07T14:41:04.034Z</time>
      </trkpt>
      <trkpt lat="48.7526" lon="2.2413">
        <ele>172.106</ele>
        <time>2017-02-07T14:41:11.221Z</time>
      </trkpt>
      <trkpt lat="48.75251" lon="2.24126">
        <ele>172.077</ele>
        <time>2017-02-07T14:41:18.756Z</time>
      </trkpt>
      <trkpt lat="48.75242" lon="2.24123">
        <ele>172.039</ele>
        <time>2017-02-07T14:41:26.810Z</time>
      </trkpt>
      <trkpt lat="48.75233" lon="2.24116">
        <ele>171.996</ele>
        <time>2017-02-07T14:41:35.494Z</time>
      </trkpt>
      <trkpt lat="48.75224" lon="2.24111">
        <ele>171.92</ele>
        <time>2017-02-07T14:41:43.265Z</time>
      </trkpt>
      <trkpt lat="48.75215" lon="2.24106">
        <ele>171.832</ele>
        <time>2017-02-07T14:41:51.478Z</time>
      </trkpt>
      <trkpt lat="48.75205" lon="2.24103">
        <ele>171.777</ele>
        <time>2017-02-07T14:41:59.431Z</time>
      </trkpt>
      <trkpt lat="48.75196" lon="2.241">
        <ele>171.744</ele>
        <time>2017-02-07T14:42:06.320Z</time>
      </trkpt>
      <trkpt lat="48.75187" lon="2.24096">
        <ele>171.701</ele>
        <time>2017-02-07T14:42:12.846Z</time>
      </trkpt>
      <trkpt lat="48.75178" lon="2.24092">
        <ele>171.66</ele>
        <time>2017-02-07T14:42:19.619Z</time>
      </trkpt>
      <trkpt lat="48.75168" lon="2.24089">
        <ele>171.628</ele>
        <time>2017-02-07T14:42:27.211Z</time>
      </trkpt>
      <trkpt lat="48.75159" lon="2.24087">
        <ele>171.534</ele>
        <time>2017-02-07T14:42:35.348Z</time>
      </trkpt>
      <trkpt lat="48.7515" lon="2.24083">
        <ele>171.338</ele>
        <time>2017-02-07T14:42:44.664Z</time>
      </trkpt>
      <trkpt lat="48.75141" lon="2.24079">
        <ele>171.078</ele>
        <time>2017-02-07T14:42:53.464Z</time>
      </trkpt>
      <trkpt lat="48.75133" lon="2.24075">
        <ele>170.825</ele>
        <time>2017-02-07T14:43:00.575Z</time>
      </trkpt>
      <trkpt lat="48.75124" lon="2.2407">
        <ele>170.659</ele>
        <time>2017-02-07T14:43:07.643Z</time>
      </trkpt>
      <trkpt lat="48.75114" lon="2.24069">
        <ele>170.617</ele>
        <time>2017-02-07T14:43:15.226Z</time>
      </trkpt>
      <trkpt lat="48.75104" lon="2.24067">
        <ele>170.623</ele>
        <time>2017-02-07T14:43:22.766Z</time>
      </trkpt>
      <trkpt lat="48.75095" lon="2.24063">
        <ele>170.601</ele>
        <time>2017-02-07T14:43:29.278Z</time>
      </trkpt>
      <trkpt lat="48.75086" lon="2.24058">
        <ele>170.532</ele>
        <time>2017-02-07T14:43:36.212Z</time>
      </trkpt>
      <trkpt lat="48.75077" lon="2.24053">
        <ele>170.445</ele>
        <time>2017-02-07T14:43:43.451Z</time>
      </trkpt>
      <trkpt lat="48.75068" lon="2.24047">
        <ele>170.357</ele>
        <time>2017-02-07T14:43:52.654Z</time>
      </trkpt>
      <trkpt lat="48.75061" lon="2.24038">
        <ele>170.232</ele>
        <time>2017-02-07T14:44:00.232Z</time>
      </trkpt>
      <trkpt lat="48.75057" lon="2.24024">
        <ele>170.044</ele>
        <time>2017-02-07T14:44:08.479Z</time>
      </trkpt>
      <trkpt lat="48.75051" lon="2.24013">
        <ele>169.841</ele>
        <time>2017-02-07T14:44:17.183Z</time>
      </trkpt>
      <trkpt lat="48.75046" lon="2.24001">
        <ele>169.685</ele>
        <time>2017-02-07T14:44:25.064Z</time>
      </trkpt>
      <trkpt lat="48.75037" lon="2.23992">
        <ele>169.498</ele>
        <time>2017-02-07T14:44:32.945Z</time>
      </trkpt>
      <trkpt lat="48.7503" lon="2.23983">
        <ele>169.156</ele>
        <time>2017-02-07T14:44:39.414Z</time>
      </trkpt>
      <trkpt lat="48.75025" lon="2.23971">
        <ele>168.745</ele>
        <time>2017-02-07T14:44:46.437Z</time>
      </trkpt>
      <trkpt lat="48.75019" lon="2.23959">
        <ele>168.425</ele>
        <time>2017-02-07T14:44:54.216Z</time>
      </trkpt>
      <trkpt lat="48.75013" lon="2.23948">
        <ele>168.119</ele>
        <time>2017-02-07T14:45:03.049Z</time>
      </trkpt>
      <trkpt lat="48.75007" lon="2.23936">
        <ele>167.627</ele>
        <time>2017-02-07T14:45:12.195Z</time>
      </trkpt>
      <trkpt lat="48.75" lon="2.23927">
        <ele>167.013</ele>
        <time>2017-02-07T14:45:20.636Z</time>
      </trkpt>
      <trkpt lat="48.74992" lon="2.23918">
        <ele>166.546</ele>
        <time>2017-02-07T14:45:27.814Z</time>
      </trkpt>
      <trkpt lat="48.74985" lon="2.23908">
        <ele>166.32</ele>
        <time>2017-02-07T14:45:34.441Z</time>
      </trkpt>
      <trkpt lat="48.74978" lon="2.23898">
        <ele>166.242</ele>
        <time>2017-02-07T14:45:41.835Z</time>
      </trkpt>
      <trkpt lat="48.7497" lon="2.23888">
        <ele>166.231</ele>
        <time>2017-02-07T14:45:49.972Z</time>
      </trkpt>
      <trkpt lat="48.74962" lon="2.23879">
        <ele>166.177</ele>
        <time>2017-02-07T14:45:57.405Z</time>
      </trkpt>
      <trkpt lat="48.74956" lon="2.23869">
        <ele>165.981</ele>
        <time>2017-02-07T14:46:05.175Z</time>
      </trkpt>
      <trkpt lat="48.74947" lon="2.2386">
        <ele>165.556</ele>
        <time>2017-02-07T14:46:14.005Z</time>
      </trkpt>
      <trkpt lat="48.74939" lon="2.23852">
        <ele>164.783</ele>
        <time>2017-02-07T14:46:20.864Z</time>
      </trkpt>
      <trkpt lat="48.74933" lon="2.23842">
        <ele>163.812</ele>
        <time>2017-02-07T14:46:27.198Z</time>
      </trkpt>
      <trkpt lat="48.74927" lon="2.2383">
        <ele>163.083</ele>
        <time>2017-02-07T14:46:34.426Z</time>
      </trkpt>
      <trkpt lat="48.7492" lon="2.2382">
        <ele>162.79</ele>
        <time>2017-02-07T14:46:42.405Z</time>
      </trkpt>
      <trkpt lat="48.74915" lon="2.23808">
        <ele>162.645</ele>
        <time>2017-02-07T14:46:50.586Z</time>
      </trkpt>
      <trkpt lat="48.74909" lon="2.23798">
        <ele>162.303</ele>
        <time>2017-02-07T14:46:58.793Z</time>
      </trkpt>
      <trkpt lat="48.74902" lon="2.23786">
        <ele>161.796</ele>
        <time>2017-02-07T14:47:07.942Z</time>
      </trkpt>
      <trkpt lat="48.74895" lon="2.23778">
        <ele>161.24</ele>
        <time>2017-02-07T14:47:16.548Z</time>
      </trkpt>
      <trkpt lat="48.74887" lon="2.23769">
        <ele>160.572</ele>
        <time>2017-02-07T14:47:25.698Z</time>
      </trkpt>
      <trkpt lat="48.74882" lon="2.23755">
        <ele>159.89</ele>
        <time>2017-02-07T14:47:34.999Z</time>
      </trkpt>
      <trkpt lat="48.74882" lon="2.23755">
        <ele>159.431</ele>
        <time>2017-02-07T14:47:38.999Z</time>
      </trkpt>
      <trkpt lat="48.74882" lon="2.23755">
        <ele>159.241</ele>
        <time>2017-02-07T14:48:17.322Z</time>
      </trkpt>
      <trkpt lat="48.74863" lon="2.23759">
        <ele>159.204</ele>
        <time>2017-02-07T14:49:40.701Z</time>
      </trkpt>
      <trkpt lat="48.74852" lon="2.23758">
        <ele>159.166</ele>
        <time>2017-02-07T14:49:50.126Z</time>
      </trkpt>
      <trkpt lat="48.74843" lon="2.23764">
        <ele>159.055</ele>
        <time>2017-02-07T14:49:59.894Z</time>
      </trkpt>
      <trkpt lat="48.74834" lon="2.23769">
        <ele>158.931</ele>
        <time>2017-02-07T14:50:08.583Z</time>
      </trkpt>
      <trkpt lat="48.74824" lon="2.23774">
        <ele>158.885</ele>
        <time>2017-02-07T14:50:17.193Z</time>
      </trkpt>
      <trkpt lat="48.74815" lon="2.23775">
        <ele>158.899</ele>
        <time>2017-02-07T14:50:25.210Z</time>
      </trkpt>
      <trkpt lat="48.74806" lon="2.23771">
        <ele>158.907</ele>
        <time>2017-02-07T14:50:32.807Z</time>
      </trkpt>
      <trkpt lat="48.748" lon="2.2376">
        <ele>158.828</ele>
        <time>2017-02-07T14:50:39.993Z</time>
      </trkpt>
      <trkpt lat="48.74795" lon="2.23748">
        <ele>158.622</ele>
        <time>2017-02-07T14:50:47.037Z</time>
      </trkpt>
      <trkpt lat="48.74788" lon="2.23736">
        <ele>158.276</ele>
        <time>2017-02-07T14:50:54.483Z</time>
      </trkpt>
      <trkpt lat="48.74782" lon="2.23725">
        <ele>157.83</ele>
        <time>2017-02-07T14:51:02.086Z</time>
      </trkpt>
      <trkpt lat="48.74774" lon="2.23714">
        <ele>157.356</ele>
        <time>2017-02-07T14:51:10.018Z</time>
      </trkpt>
      <trkpt lat="48.74768" lon="2.23704">
        <ele>156.875</ele>
        <time>2017-02-07T14:51:17.201Z</time>
      </trkpt>
      <trkpt lat="48.74761" lon="2.23694">
        <ele>156.424</ele>
        <time>2017-02-07T14:51:24.005Z</time>
      </trkpt>
      <trkpt lat="48.74753" lon="2.23682">
        <ele>155.9</ele>
        <time>2017-02-07T14:51:31.987Z</time>
      </trkpt>
      <trkpt lat="48.74745" lon="2.23677">
        <ele>155.121</ele>
        <time>2017-02-07T14:51:39.968Z</time>
      </trkpt>
      <trkpt lat="48.74736" lon="2.23669">
        <ele>154.06</ele>
        <time>2017-02-07T14:51:49.449Z</time>
      </trkpt>
      <trkpt lat="48.74728" lon="2.23661">
        <ele>152.935</ele>
        <time>2017-02-07T14:51:58.782Z</time>
      </trkpt>
      <trkpt lat="48.74721" lon="2.23654">
        <ele>152.131</ele>
        <time>2017-02-07T14:52:06.326Z</time>
      </trkpt>
      <trkpt lat="48.74712" lon="2.23646">
        <ele>151.697</ele>
        <time>2017-02-07T14:52:13.516Z</time>
      </trkpt>
      <trkpt lat="48.74704" lon="2.23639">
        <ele>151.209</ele>
        <time>2017-02-07T14:52:20.478Z</time>
      </trkpt>
      <trkpt lat="48.74695" lon="2.23634">
        <ele>150.606</ele>
        <time>2017-02-07T14:52:28.301Z</time>
      </trkpt>
      <trkpt lat="48.74686" lon="2.23627">
        <ele>150.137</ele>
        <time>2017-02-07T14:52:35.819Z</time>
      </trkpt>
      <trkpt lat="48.74677" lon="2.23623">
        <ele>149.876</ele>
        <time>2017-02-07T14:52:43.135Z</time>
      </trkpt>
      <trkpt lat="48.74668" lon="2.23624">
        <ele>149.677</ele>
        <time>2017-02-07T14:52:51.160Z</time>
      </trkpt>
      <trkpt lat="48.74659" lon="2.23627">
        <ele>149.338</ele>
        <time>2017-02-07T14:53:01.107Z</time>
      </trkpt>
      <trkpt lat="48.74651" lon="2.23635">
        <ele>148.877</ele>
        <time>2017-02-07T14:53:11.185Z</time>
      </trkpt>
      <trkpt lat="48.74642" lon="2.23643">
        <ele>148.572</ele>
        <time>2017-02-07T14:53:19.004Z</time>
      </trkpt>
      <trkpt lat="48.74634" lon="2.23652">
        <ele>148.565</ele>
        <time>2017-02-07T14:53:26.748Z</time>
      </trkpt>
      <trkpt lat="48.74626" lon="2.2366">
        <ele>148.811</ele>
        <time>2017-02-07T14:53:34.187Z</time>
      </trkpt>
      <trkpt lat="48.74617" lon="2.23669">
        <ele>149.173</ele>
        <time>2017-02-07T14:53:41.435Z</time>
      </trkpt>
      <trkpt lat="48.74609" lon="2.23676">
        <ele>149.522</ele>
        <time>2017-02-07T14:53:48.296Z</time>
      </trkpt>
      <trkpt lat="48.74601" lon="2.23681">
        <ele>149.801</ele>
        <time>2017-02-07T14:53:55.456Z</time>
      </trkpt>
      <trkpt lat="48.74593" lon="2.23689">
        <ele>149.983</ele>
        <time>2017-02-07T14:54:03.514Z</time>
      </trkpt>
      <trkpt lat="48.74585" lon="2.23698">
        <ele>150.125</ele>
        <time>2017-02-07T14:54:11.676Z</time>
      </trkpt>
      <trkpt lat="48.74576" lon="2.23705">
        <ele>150.313</ele>
        <time>2017-02-07T14:54:20.293Z</time>
      </trkpt>
      <trkpt lat="48.74568" lon="2.23712">
        <ele>150.372</ele>
        <time>2017-02-07T14:54:28.200Z</time>
      </trkpt>
      <trkpt lat="48.74559" lon="2.23719">
        <ele>150.154</ele>
        <time>2017-02-07T14:54:35.875Z</time>
      </trkpt>
      <trkpt lat="48.74551" lon="2.23726">
        <ele>149.792</ele>
        <time>2017-02-07T14:54:43.656Z</time>
      </trkpt>
      <trkpt lat="48.74542" lon="2.23732">
        <ele>149.345</ele>
        <time>2017-02-07T14:54:51.427Z</time>
      </trkpt>
      <trkpt lat="48.74533" lon="2.23737">
        <ele>148.841</ele>
        <time>2017-02-07T14:54:58.427Z</time>
      </trkpt>
      <trkpt lat="48.74523" lon="2.2374">
        <ele>148.478</ele>
        <time>2017-02-07T14:55:06.207Z</time>
      </trkpt>
      <trkpt lat="48.74514" lon="2.23744">
        <ele>148.198</ele>
        <time>2017-02-07T14:55:12.858Z</time>
      </trkpt>
      <trkpt lat="48.74505" lon="2.23751">
        <ele>147.762</ele>
        <time>2017-02-07T14:55:19.941Z</time>
      </trkpt>
      <trkpt lat="48.74496" lon="2.23754">
        <ele>147.267</ele>
        <time>2017-02-07T14:55:26.851Z</time>
      </trkpt>
      <trkpt lat="48.74487" lon="2.2376">
        <ele>147.374</ele>
        <time>2017-02-07T14:55:33.917Z</time>
      </trkpt>
      <trkpt lat="48.74478" lon="2.23766">
        <ele>148.35</ele>
        <time>2017-02-07T14:55:41.260Z</time>
      </trkpt>
      <trkpt lat="48.7447" lon="2.23773">
        <ele>149.373</ele>
        <time>2017-02-07T14:55:47.622Z</time>
      </trkpt>
      <trkpt lat="48.74461" lon="2.23779">
        <ele>148.984</ele>
        <time>2017-02-07T14:55:54.727Z</time>
      </trkpt>
      <trkpt lat="48.74452" lon="2.23785">
        <ele>146.912</ele>
        <time>2017-02-07T14:56:01.645Z</time>
      </trkpt>
      <trkpt lat="48.74443" lon="2.2379">
        <ele>144.615</ele>
        <time>2017-02-07T14:56:07.752Z</time>
      </trkpt>
      <trkpt lat="48.74433" lon="2.23793">
        <ele>143.914</ele>
        <time>2017-02-07T14:56:14.488Z</time>
      </trkpt>
      <trkpt lat="48.74423" lon="2.23798">
        <ele>144.985</ele>
        <time>2017-02-07T14:56:22.691Z</time>
      </trkpt>
      <trkpt lat="48.74414" lon="2.23797">
        <ele>146.403</ele>
        <time>2017-02-07T14:56:30.999Z</time>
      </trkpt>
      <trkpt lat="48.74414" lon="2.23797">
        <ele>146.94</ele>
        <time>2017-02-07T14:56:30.999Z</time>
      </trkpt>
      <trkpt lat="48.74414" lon="2.23797">
        <ele>146.762</ele>
        <time>2017-02-07T14:56:35.337Z</time>
      </trkpt>
      <trkpt lat="48.74406" lon="2.23789">
        <ele>146.499</ele>
        <time>2017-02-07T14:56:56.842Z</time>
      </trkpt>
      <trkpt lat="48.74396" lon="2.23787">
        <ele>145.658</ele>
        <time>2017-02-07T14:57:08.141Z</time>
      </trkpt>
      <trkpt lat="48.74387" lon="2.23785">
        <ele>142.991</ele>
        <time>2017-02-07T14:57:17.557Z</time>
      </trkpt>
      <trkpt lat="48.74378" lon="2.23782">
        <ele>139.416</ele>
        <time>2017-02-07T14:57:25.576Z</time>
      </trkpt>
      <trkpt lat="48.74369" lon="2.23778">
        <ele>136.307</ele>
        <time>2017-02-07T14:57:33.868Z</time>
      </trkpt>
      <trkpt lat="48.7436" lon="2.23776">
        <ele>134.241</ele>
        <time>2017-02-07T14:57:43.841Z</time>
      </trkpt>
      <trkpt lat="48.74352" lon="2.23771">
        <ele>133.054</ele>
        <time>2017-02-07T14:57:54.328Z</time>
      </trkpt>
      <trkpt lat="48.74342" lon="2.23768">
        <ele>131.401</ele>
        <time>2017-02-07T14:58:06.017Z</time>
      </trkpt>
      <trkpt lat="48.74333" lon="2.23762">
        <ele>128.572</ele>
        <time>2017-02-07T14:58:18.514Z</time>
      </trkpt>
      <trkpt lat="48.74324" lon="2.23758">
        <ele>125.24</ele>
        <time>2017-02-07T14:58:28.333Z</time>
      </trkpt>
      <trkpt lat="48.74315" lon="2.23754">
        <ele>122.054</ele>
        <time>2017-02-07T14:58:36.870Z</time>
      </trkpt>
      <trkpt lat="48.74305" lon="2.2375">
        <ele>119.082</ele>
        <time>2017-02-07T14:58:45.771Z</time>
      </trkpt>
      <trkpt lat="48.74298" lon="2.2374">
        <ele>116.235</ele>
        <time>2017-02-07T14:58:54.577Z</time>
      </trkpt>
      <trkpt lat="48.74302" lon="2.23727">
        <ele>113.78</ele>
        <time>2017-02-07T14:59:02.053Z</time>
      </trkpt>
      <trkpt lat="48.74304" lon="2.23713">
        <ele>113.601</ele>
        <time>2017-02-07T14:59:08.599Z</time>
      </trkpt>
      <trkpt lat="48.74306" lon="2.23698">
        <ele>116.604</ele>
        <time>2017-02-07T14:59:15.356Z</time>
      </trkpt>
      <trkpt lat="48.74308" lon="2.23683">
        <ele>120.374</ele>
        <time>2017-02-07T14:59:22.582Z</time>
      </trkpt>
      <trkpt lat="48.74312" lon="2.23669">
        <ele>122.406</ele>
        <time>2017-02-07T14:59:30.985Z</time>
      </trkpt>
      <trkpt lat="48.74314" lon="2.23655">
        <ele>122.651</ele>
        <time>2017-02-07T14:59:42.091Z</time>
      </trkpt>
      <trkpt lat="48.74307" lon="2.23646">
        <ele>121.988</ele>
        <time>2017-02-07T14:59:52.751Z</time>
      </trkpt>
      <trkpt lat="48.74298" lon="2.23646">
        <ele>120.844</ele>
        <time>2017-02-07T15:00:03.894Z</time>
      </trkpt>
      <trkpt lat="48.74292" lon="2.23635">
        <ele>119.04</ele>
        <time>2017-02-07T15:00:12.337Z</time>
      </trkpt>
      <trkpt lat="48.74288" lon="2.23622">
        <ele>116.789</ele>
        <time>2017-02-07T15:00:19.779Z</time>
      </trkpt>
      <trkpt lat="48.74281" lon="2.23613">
        <ele>114.744</ele>
        <time>2017-02-07T15:00:27.391Z</time>
      </trkpt>
      <trkpt lat="48.74275" lon="2.23602">
        <ele>113.151</ele>
        <time>2017-02-07T15:00:35.548Z</time>
      </trkpt>
      <trkpt lat="48.74268" lon="2.23592">
        <ele>111.768</ele>
        <time>2017-02-07T15:00:44.465Z</time>
      </trkpt>
      <trkpt lat="48.74259" lon="2.23592">
        <ele>110.277</ele>
        <time>2017-02-07T15:00:54.289Z</time>
      </trkpt>
      <trkpt lat="48.74254" lon="2.23604">
        <ele>108.576</ele>
        <time>2017-02-07T15:01:06.911Z</time>
      </trkpt>
      <trkpt lat="48.74249" lon="2.23615">
        <ele>106.272</ele>
        <time>2017-02-07T15:01:20.546Z</time>
      </trkpt>
      <trkpt lat="48.74242" lon="2.23625">
        <ele>103.084</ele>
        <time>2017-02-07T15:01:30.240Z</time>
      </trkpt>
      <trkpt lat="48.74237" lon="2.23638">
        <ele>99.707</ele>
        <time>2017-02-07T15:01:38.505Z</time>
      </trkpt>
      <trkpt lat="48.74233" lon="2.23651">
        <ele>97.118</ele>
        <time>2017-02-07T15:01:48.543Z</time>
      </trkpt>
      <trkpt lat="48.7423" lon="2.23664">
        <ele>95.633</ele>
        <time>2017-02-07T15:01:57.999Z</time>
      </trkpt>
      <trkpt lat="48.7423" lon="2.23664">
        <ele>95.064</ele>
        <time>2017-02-07T15:02:08.999Z</time>
      </trkpt>
      <trkpt lat="48.7423" lon="2.23664">
        <ele>94.98</ele>
        <time>2017-02-07T15:02:27.275Z</time>
      </trkpt>
      <trkpt lat="48.74208" lon="2.23659">
        <ele>95.005</ele>
        <time>2017-02-07T15:03:06.503Z</time>
      </trkpt>
      <trkpt lat="48.742" lon="2.23667">
        <ele>94.13</ele>
        <time>2017-02-07T15:03:15.316Z</time>
      </trkpt>
      <trkpt lat="48.74194" lon="2.23678">
        <ele>91.683</ele>
        <time>2017-02-07T15:03:22.597Z</time>
      </trkpt>
      <trkpt lat="48.74187" lon="2.23689">
        <ele>88.83</ele>
        <time>2017-02-07T15:03:30.692Z</time>
      </trkpt>
      <trkpt lat="48.74181" lon="2.23699">
        <ele>86.956</ele>
        <time>2017-02-07T15:03:37.877Z</time>
      </trkpt>
      <trkpt lat="48.74171" lon="2.23696">
        <ele>86</ele>
        <time>2017-02-07T15:03:45.754Z</time>
      </trkpt>
      <trkpt lat="48.74163" lon="2.2369">
        <ele>85.4</ele>
        <time>2017-02-07T15:03:53.496Z</time>
      </trkpt>
      <trkpt lat="48.74153" lon="2.2369">
        <ele>84.672</ele>
        <time>2017-02-07T15:04:01.615Z</time>
      </trkpt>
      <trkpt lat="48.74143" lon="2.23687">
        <ele>83.415</ele>
        <time>2017-02-07T15:04:08.967Z</time>
      </trkpt>
      <trkpt lat="48.74134" lon="2.23684">
        <ele>81.566</ele>
        <time>2017-02-07T15:04:16.683Z</time>
      </trkpt>
      <trkpt lat="48.74125" lon="2.2368">
        <ele>79.523</ele>
        <time>2017-02-07T15:04:23.754Z</time>
      </trkpt>
      <trkpt lat="48.74117" lon="2.23672">
        <ele>77.836</ele>
        <time>2017-02-07T15:04:30.887Z</time>
      </trkpt>
      <trkpt lat="48.74109" lon="2.23664">
        <ele>76.581</ele>
        <time>2017-02-07T15:04:36.859Z</time>
      </trkpt>
      <trkpt lat="48.74101" lon="2.23654">
        <ele>75.462</ele>
        <time>2017-02-07T15:04:43.670Z</time>
      </trkpt>
      <trkpt lat="48.74102" lon="2.2364">
        <ele>74.398</ele>
        <time>2017-02-07T15:04:50.364Z</time>
      </trkpt>
      <trkpt lat="48.74107" lon="2.23627">
        <ele>73.425</ele>
        <time>2017-02-07T15:04:59.039Z</time>
      </trkpt>
      <trkpt lat="48.74111" lon="2.23615">
        <ele>72.391</ele>
        <time>2017-02-07T15:05:05.956Z</time>
      </trkpt>
      <trkpt lat="48.74116" lon="2.23604">
        <ele>71.35</ele>
        <time>2017-02-07T15:05:13.945Z</time>
      </trkpt>
      <trkpt lat="48.74124" lon="2.23596">
        <ele>70.522</ele>
        <time>2017-02-07T15:05:23.640Z</time>
      </trkpt>
      <trkpt lat="48.74132" lon="2.23589">
        <ele>69.981</ele>
        <time>2017-02-07T15:05:31.808Z</time>
      </trkpt>
      <trkpt lat="48.74137" lon="2.23578">
        <ele>69.616</ele>
        <time>2017-02-07T15:05:38.999Z</time>
      </trkpt>
      <trkpt lat="48.74137" lon="2.23578">
        <ele>69.385</ele>
        <time>2017-02-07T15:05:44.999Z</time>
      </trkpt>
      <trkpt lat="48.74137" lon="2.23578">
        <ele>69.32</ele>
        <time>2017-02-07T15:05:55.154Z</time>
      </trkpt>
      <trkpt lat="48.74142" lon="2.23564">
        <ele>69.325</ele>
        <time>2017-02-07T15:06:11.353Z</time>
      </trkpt>
      <trkpt lat="48.74146" lon="2.2355">
        <ele>69.213</ele>
        <time>2017-02-07T15:06:21.170Z</time>
      </trkpt>
      <trkpt lat="48.74151" lon="2.23539">
        <ele>68.92</ele>
        <time>2017-02-07T15:06:29.909Z</time>
      </trkpt>
      <trkpt lat="48.74155" lon="2.23525">
        <ele>68.506</ele>
        <time>2017-02-07T15:06:38.876Z</time>
      </trkpt>
      <trkpt lat="48.74157" lon="2.2351">
        <ele>68.005</ele>
        <time>2017-02-07T15:06:47.136Z</time>
      </trkpt>
      <trkpt lat="48.7416" lon="2.23497">
        <ele>67.411</ele>
        <time>2017-02-07T15:06:54.927Z</time>
      </trkpt>
      <trkpt lat="48.74162" lon="2.23483">
        <ele>66.841</ele>
        <time>2017-02-07T15:07:02.720Z</time>
      </trkpt>
      <trkpt lat="48.74164" lon="2.2347">
        <ele>66.452</ele>
        <time>2017-02-07T15:07:10.636Z</time>
      </trkpt>
      <trkpt lat="48.74166" lon="2.23456">
        <ele>66.257</ele>
        <time>2017-02-07T15:07:18.569Z</time>
      </trkpt>
      <trkpt lat="48.74167" lon="2.23441">
        <ele>66.144</ele>
        <time>2017-02-07T15:07:27.418Z</time>
      </trkpt>
      <trkpt lat="48.74164" lon="2.23427">
        <ele>66.159</ele>
        <time>2017-02-07T15:07:35.311Z</time>
      </trkpt>
      <trkpt lat="48.74159" lon="2.23416">
        <ele>66.364</ele>
        <time>2017-02-07T15:07:42.513Z</time>
      </trkpt>
      <trkpt lat="48.74158" lon="2.23401">
        <ele>66.507</ele>
        <time>2017-02-07T15:07:50.346Z</time>
      </trkpt>
      <trkpt lat="48.74161" lon="2.23388">
        <ele>66.383</ele>
        <time>2017-02-07T15:07:58.272Z</time>
      </trkpt>
      <trkpt lat="48.74166" lon="2.23375">
        <ele>66.155</ele>
        <time>2017-02-07T15:08:07.029Z</time>
      </trkpt>
      <trkpt lat="48.74166" lon="2.23361">
        <ele>65.979</ele>
        <time>2017-02-07T15:08:14.937Z</time>
      </trkpt>
      <trkpt lat="48.74165" lon="2.23347">
        <ele>65.782</ele>
        <time>2017-02-07T15:08:22.896Z</time>
      </trkpt>
      <trkpt lat="48.74165" lon="2.23331">
        <ele>65.532</ele>
        <time>2017-02-07T15:08:31.346Z</time>
      </trkpt>
      <trkpt lat="48.74166" lon="2.23317">
        <ele>65.273</ele>
        <time>2017-02-07T15:08:39.659Z</time>
      </trkpt>
      <trkpt lat="48.74167" lon="2.23303">
        <ele>65.04</ele>
        <time>2017-02-07T15:08:47.684Z</time>
      </trkpt>
      <trkpt lat="48.74168" lon="2.23288">
        <ele>64.912</ele>
        <time>2017-02-07T15:08:55.964Z</time>
      </trkpt>
      <trkpt lat="48.74169" lon="2.23274">
        <ele>64.963</ele>
        <time>2017-02-07T15:09:04.721Z</time>
      </trkpt>
      <trkpt lat="48.74167" lon="2.2326">
        <ele>65.117</ele>
        <time>2017-02-07T15:09:13.673Z</time>
      </trkpt>
      <trkpt lat="48.74166" lon="2.23245">
        <ele>65.244</ele>
        <time>2017-02-07T15:09:23.136Z</time>
      </trkpt>
      <trkpt lat="48.74163" lon="2.23232">
        <ele>65.268</ele>
        <time>2017-02-07T15:09:33.101Z</time>
      </trkpt>
      <trkpt lat="48.7416" lon="2.23218">
        <ele>65.217</ele>
        <time>2017-02-07T15:09:43.774Z</time>
      </trkpt>
      <trkpt lat="48.74157" lon="2.23204">
        <ele>65.166</ele>
        <time>2017-02-07T15:09:53.554Z</time>
      </trkpt>
      <trkpt lat="48.74155" lon="2.2319">
        <ele>65.163</ele>
        <time>2017-02-07T15:10:02.500Z</time>
      </trkpt>
      <trkpt lat="48.74157" lon="2.23175">
        <ele>65.215</ele>
        <time>2017-02-07T15:10:11.819Z</time>
      </trkpt>
      <trkpt lat="48.7416" lon="2.23161">
        <ele>65.35</ele>
        <time>2017-02-07T15:10:20.838Z</time>
      </trkpt>
      <trkpt lat="48.74163" lon="2.23148">
        <ele>65.632</ele>
        <time>2017-02-07T15:10:28.976Z</time>
      </trkpt>
      <trkpt lat="48.7417" lon="2.23138">
        <ele>66.057</ele>
        <time>2017-02-07T15:10:36.821Z</time>
      </trkpt>
      <trkpt lat="48.74178" lon="2.23129">
        <ele>66.467</ele>
        <time>2017-02-07T15:10:46.630Z</time>
      </trkpt>
      <trkpt lat="48.74187" lon="2.23122">
        <ele>66.526</ele>
        <time>2017-02-07T15:10:55.855Z</time>
      </trkpt>
      <trkpt lat="48.74195" lon="2.23115">
        <ele>66.126</ele>
        <time>2017-02-07T15:11:05.185Z</time>
      </trkpt>
      <trkpt lat="48.74202" lon="2.23108">
        <ele>65.73</ele>
        <time>2017-02-07T15:11:14.079Z</time>
      </trkpt>
      <trkpt lat="48.74208" lon="2.23097">
        <ele>65.736</ele>
        <time>2017-02-07T15:11:22.266Z</time>
      </trkpt>
      <trkpt lat="48.74213" lon="2.23084">
        <ele>65.982</ele>
        <time>2017-02-07T15:11:31.284Z</time>
      </trkpt>
      <trkpt lat="48.74221" lon="2.23079">
        <ele>66.244</ele>
        <time>2017-02-07T15:11:39.657Z</time>
      </trkpt>
      <trkpt lat="48.74231" lon="2.23081">
        <ele>66.546</ele>
        <time>2017-02-07T15:11:48.095Z</time>
      </trkpt>
      <trkpt lat="48.7424" lon="2.23087">
        <ele>66.883</ele>
        <time>2017-02-07T15:11:56.758Z</time>
      </trkpt>
      <trkpt lat="48.74249" lon="2.23087">
        <ele>67.118</ele>
        <time>2017-02-07T15:12:05.900Z</time>
      </trkpt>
      <trkpt lat="48.74256" lon="2.23077">
        <ele>67.175</ele>
        <time>2017-02-07T15:12:15.806Z</time>
      </trkpt>
      <trkpt lat="48.74262" lon="2.23066">
        <ele>67.134</ele>
        <time>2017-02-07T15:12:24.828Z</time>
      </trkpt>
      <trkpt lat="48.7427" lon="2.23058">
        <ele>67.151</ele>
        <time>2017-02-07T15:12:33.149Z</time>
      </trkpt>
      <trkpt lat="48.74279" lon="2.23052">
        <ele>67.348</ele>
        <time>2017-02-07T15:12:41.124Z</time>
      </trkpt>
      <trkpt lat="48.74287" lon="2.23046">
        <ele>67.656</ele>
        <time>2017-02-07T15:12:48.873Z</time>
      </trkpt>
      <trkpt lat="48.74296" lon="2.23049">
        <ele>67.906</ele>
        <time>2017-02-07T15:12:56.313Z</time>
      </trkpt>
      <trkpt lat="48.74306" lon="2.23048">
        <ele>68.001</ele>
        <time>2017-02-07T15:13:04.276Z</time>
      </trkpt>
      <trkpt lat="48.74315" lon="2.23049">
        <ele>67.925</ele>
        <time>2017-02-07T15:13:11.506Z</time>
      </trkpt>
      <trkpt lat="48.74324" lon="2.23045">
        <ele>67.749</ele>
        <time>2017-02-07T15:13:19.006Z</time>
      </trkpt>
      <trkpt lat="48.74334" lon="2.23042">
        <ele>67.603</ele>
        <time>2017-02-07T15:13:27.058Z</time>
      </trkpt>
      <trkpt lat="48.74343" lon="2.23043">
        <ele>67.545</ele>
        <time>2017-02-07T15:13:35.179Z</time>
      </trkpt>
      <trkpt lat="48.74352" lon="2.23039">
        <ele>67.558</ele>
        <time>2017-02-07T15:13:43.090Z</time>
      </trkpt>
      <trkpt lat="48.74361" lon="2.23042">
        <ele>67.611</ele>
        <time>2017-02-07T15:13:51.268Z</time>
      </trkpt>
      <trkpt lat="48.74369" lon="2.23046">
        <ele>67.625</ele>
        <time>2017-02-07T15:13:59.881Z</time>
      </trkpt>
      <trkpt lat="48.74379" lon="2.23046">
        <ele>67.503</ele>
        <time>2017-02-07T15:14:09.239Z</time>
      </trkpt>
      <trkpt lat="48.74388" lon="2.23044">
        <ele>67.251</ele>
        <time>2017-02-07T15:14:18.874Z</time>
      </trkpt>
      <trkpt lat="48.74398" lon="2.2304">
        <ele>66.956</ele>
        <time>2017-02-07T15:14:28.373Z</time>
      </trkpt>
      <trkpt lat="48.74406" lon="2.23048">
        <ele>66.745</ele>
        <time>2017-02-07T15:14:37.640Z</time>
      </trkpt>
      <trkpt lat="48.74408" lon="2.23063">
        <ele>66.691</ele>
        <time>2017-02-07T15:14:47.237Z</time>
      </trkpt>
      <trkpt lat="48.74418" lon="2.23063">
        <ele>66.721</ele>
        <time>2017-02-07T15:14:55.969Z</time>
      </trkpt>
      <trkpt lat="48.74427" lon="2.23058">
        <ele>66.74</ele>
        <time>2017-02-07T15:15:03.531Z</time>
      </trkpt>
      <trkpt lat="48.74435" lon="2.23052">
        <ele>66.743</ele>
        <time>2017-02-07T15:15:10.932Z</time>
      </trkpt>
      <trkpt lat="48.74442" lon="2.23041">
        <ele>66.739</ele>
        <time>2017-02-07T15:15:18.561Z</time>
      </trkpt>
      <trkpt lat="48.74449" lon="2.2303">
        <ele>66.737</ele>
        <time>2017-02-07T15:15:26.680Z</time>
      </trkpt>
      <trkpt lat="48.74456" lon="2.23021">
        <ele>66.695</ele>
        <time>2017-02-07T15:15:34.626Z</time>
      </trkpt>
      <trkpt lat="48.74465" lon="2.23019">
        <ele>66.57</ele>
        <time>2017-02-07T15:15:42.252Z</time>
      </trkpt>
      <trkpt lat="48.74475" lon="2.2302">
        <ele>66.393</ele>
        <time>2017-02-07T15:15:50.575Z</time>
      </trkpt>
      <trkpt lat="48.74486" lon="2.23023">
        <ele>66.234</ele>
        <time>2017-02-07T15:15:59.001Z</time>
      </trkpt>
      <trkpt lat="48.74495" lon="2.23026">
        <ele>66.144</ele>
        <time>2017-02-07T15:16:07.101Z</time>
      </trkpt>
      <trkpt lat="48.74504" lon="2.23028">
        <ele>66.152</ele>
        <time>2017-02-07T15:16:15.523Z</time>
      </trkpt>
      <trkpt lat="48.74514" lon="2.23027">
        <ele>66.25</ele>
        <time>2017-02-07T15:16:23.868Z</time>
      </trkpt>
      <trkpt lat="48.74523" lon="2.23024">
        <ele>66.36</ele>
        <time>2017-02-07T15:16:32.206Z</time>
      </trkpt>
      <trkpt lat="48.74532" lon="2.23019">
        <ele>66.393</ele>
        <time>2017-02-07T15:16:39.736Z</time>
      </trkpt>
      <trkpt lat="48.7454" lon="2.23011">
        <ele>66.344</ele>
        <time>2017-02-07T15:16:47.079Z</time>
      </trkpt>
      <trkpt lat="48.74547" lon="2.23003">
        <ele>66.271</ele>
        <time>2017-02-07T15:16:54.459Z</time>
      </trkpt>
      <trkpt lat="48.74555" lon="2.22994">
        <ele>66.223</ele>
        <time>2017-02-07T15:17:02.895Z</time>
      </trkpt>
      <trkpt lat="48.74562" lon="2.22984">
        <ele>66.203</ele>
        <time>2017-02-07T15:17:10.945Z</time>
      </trkpt>
      <trkpt lat="48.74569" lon="2.22976">
        <ele>66.163</ele>
        <time>2017-02-07T15:17:18.835Z</time>
      </trkpt>
      <trkpt lat="48.74577" lon="2.22967">
        <ele>66.08</ele>
        <time>2017-02-07T15:17:27.282Z</time>
      </trkpt>
      <trkpt lat="48.74584" lon="2.22958">
        <ele>66.009</ele>
        <time>2017-02-07T15:17:35.317Z</time>
      </trkpt>
      <trkpt lat="48.74592" lon="2.22949">
        <ele>66.037</ele>
        <time>2017-02-07T15:17:45.000Z</time>
      </trkpt>
      <trkpt lat="48.74592" lon="2.22949">
        <ele>66.172</ele>
        <time>2017-02-07T15:17:50.000Z</time>
      </trkpt>
      <trkpt lat="48.74592" lon="2.22949">
        <ele>66.278</ele>
        <time>2017-02-07T15:17:50.100Z</time>
      </trkpt>
      <trkpt lat="48.746" lon="2.22939">
        <ele>66.159</ele>
        <time>2017-02-07T15:18:09.283Z</time>
      </trkpt>
      <trkpt lat="48.74609" lon="2.22937">
        <ele>66.098</ele>
        <time>2017-02-07T15:18:19.203Z</time>
      </trkpt>
      <trkpt lat="48.74617" lon="2.22929">
        <ele>65.932</ele>
        <time>2017-02-07T15:18:29.052Z</time>
      </trkpt>
      <trkpt lat="48.74623" lon="2.22918">
        <ele>65.52</ele>
        <time>2017-02-07T15:18:39.227Z</time>
      </trkpt>
      <trkpt lat="48.74629" lon="2.22907">
        <ele>65.034</ele>
        <time>2017-02-07T15:18:49.115Z</time>
      </trkpt>
      <trkpt lat="48.74638" lon="2.22903">
        <ele>64.739</ele>
        <time>2017-02-07T15:18:59.670Z</time>
      </trkpt>
      <trkpt lat="48.74647" lon="2.22896">
        <ele>64.686</ele>
        <time>2017-02-07T15:19:10.028Z</time>
      </trkpt>
      <trkpt lat="48.74652" lon="2.22885">
        <ele>64.838</ele>
        <time>2017-02-07T15:19:18.360Z</time>
      </trkpt>
      <trkpt lat="48.74658" lon="2.22873">
        <ele>65.107</ele>
        <time>2017-02-07T15:19:27.077Z</time>
      </trkpt>
      <trkpt lat="48.7466" lon="2.22858">
        <ele>65.35</ele>
        <time>2017-02-07T15:19:35.221Z</time>
      </trkpt>
      <trkpt lat="48.74662" lon="2.22844">
        <ele>65.483</ele>
        <time>2017-02-07T15:19:42.959Z</time>
      </trkpt>
      <trkpt lat="48.74668" lon="2.22833">
        <ele>65.526</ele>
        <time>2017-02-07T15:19:51.002Z</time>
      </trkpt>
      <trkpt lat="48.74673" lon="2.22821">
        <ele>65.53</ele>
        <time>2017-02-07T15:19:59.693Z</time>
      </trkpt>
      <trkpt lat="48.74679" lon="2.2281">
        <ele>65.531</ele>
        <time>2017-02-07T15:20:09.533Z</time>
      </trkpt>
      <trkpt lat="48.74689" lon="2.22809">
        <ele>65.537</ele>
        <time>2017-02-07T15:20:18.244Z</time>
      </trkpt>
      <trkpt lat="48.74698" lon="2.22808">
        <ele>65.495</ele>
        <time>2017-02-07T15:20:26.362Z</time>
      </trkpt>
      <trkpt lat="48.74706" lon="2.22802">
        <ele>65.359</ele>
        <time>2017-02-07T15:20:34.614Z</time>
      </trkpt>
      <trkpt lat="48.74709" lon="2.22789">
        <ele>65.173</ele>
        <time>2017-02-07T15:20:42.633Z</time>
      </trkpt>
      <trkpt lat="48.74713" lon="2.22776">
        <ele>65.025</ele>
        <time>2017-02-07T15:20:50.601Z</time>
      </trkpt>
      <trkpt lat="48.74716" lon="2.22763">
        <ele>64.994</ele>
        <time>2017-02-07T15:20:57.795Z</time>
      </trkpt>
      <trkpt lat="48.74722" lon="2.22752">
        <ele>65.09</ele>
        <time>2017-02-07T15:21:04.977Z</time>
      </trkpt>
      <trkpt lat="48.74726" lon="2.22739">
        <ele>65.203</ele>
        <time>2017-02-07T15:21:12.081Z</time>
      </trkpt>
      <trkpt lat="48.74729" lon="2.22726">
        <ele>65.243</ele>
        <time>2017-02-07T15:21:19.661Z</time>
      </trkpt>
      <trkpt lat="48.74736" lon="2.22717">
        <ele>65.338</ele>
        <time>2017-02-07T15:21:26.918Z</time>
      </trkpt>
      <trkpt lat="48.74742" lon="2.22706">
        <ele>65.653</ele>
        <time>2017-02-07T15:21:34.018Z</time>
      </trkpt>
      <trkpt lat="48.74747" lon="2.22693">
        <ele>66.084</ele>
        <time>2017-02-07T15:21:41.466Z</time>
      </trkpt>
      <trkpt lat="48.74752" lon="2.22682">
        <ele>66.399</ele>
        <time>2017-02-07T15:21:48.792Z</time>
      </trkpt>
      <trkpt lat="48.74757" lon="2.2267">
        <ele>66.529</ele>
        <time>2017-02-07T15:21:56.511Z</time>
      </trkpt>
      <trkpt lat="48.74763" lon="2.22658">
        <ele>66.528</ele>
        <time>2017-02-07T15:22:04.410Z</time>
      </trkpt>
      <trkpt lat="48.74769" lon="2.22647">
        <ele>66.475</ele>
        <time>2017-02-07T15:22:12.252Z</time>
      </trkpt>
      <trkpt lat="48.74776" lon="2.22637">
        <ele>66.502</ele>
        <time>2017-02-07T15:22:19.872Z</time>
      </trkpt>
      <trkpt lat="48.74784" lon="2.22629">
        <ele>66.694</ele>
        <time>2017-02-07T15:22:27.541Z</time>
      </trkpt>
      <trkpt lat="48.74793" lon="2.22624">
        <ele>66.99</ele>
        <time>2017-02-07T15:22:34.969Z</time>
      </trkpt>
      <trkpt lat="48.74801" lon="2.22616">
        <ele>67.261</ele>
        <time>2017-02-07T15:22:42.950Z</time>
      </trkpt>
      <trkpt lat="48.7481" lon="2.22609">
        <ele>67.385</ele>
        <time>2017-02-07T15:22:50.372Z</time>
      </trkpt>
      <trkpt lat="48.74815" lon="2.22596">
        <ele>67.334</ele>
        <time>2017-02-07T15:22:58.234Z</time>
      </trkpt>
      <trkpt lat="48.74821" lon="2.22586">
        <ele>67.212</ele>
        <time>2017-02-07T15:23:05.854Z</time>
      </trkpt>
      <trkpt lat="48.74829" lon="2.22578">
        <ele>67.112</ele>
        <time>2017-02-07T15:23:13.718Z</time>
      </trkpt>
      <trkpt lat="48.74838" lon="2.22573">
        <ele>67.042</ele>
        <time>2017-02-07T15:23:20.845Z</time>
      </trkpt>
      <trkpt lat="48.74846" lon="2.22564">
        <ele>66.984</ele>
        <time>2017-02-07T15:23:28.473Z</time>
      </trkpt>
      <trkpt lat="48.74854" lon="2.22557">
        <ele>66.988</ele>
        <time>2017-02-07T15:23:35.694Z</time>
      </trkpt>
      <trkpt lat="48.7486" lon="2.22546">
        <ele>67.246</ele>
        <time>2017-02-07T15:23:42.890Z</time>
      </trkpt>
      <trkpt lat="48.74862" lon="2.22532">
        <ele>67.804</ele>
        <time>2017-02-07T15:23:50.608Z</time>
      </trkpt>
      <trkpt lat="48.74859" lon="2.22518">
        <ele>68.361</ele>
        <time>2017-02-07T15:23:58.192Z</time>
      </trkpt>
      <trkpt lat="48.74855" lon="2.22505">
        <ele>68.712</ele>
        <time>2017-02-07T15:24:06.131Z</time>
      </trkpt>
      <trkpt lat="48.7485" lon="2.22494">
        <ele>69.004</ele>
        <time>2017-02-07T15:24:14.865Z</time>
      </trkpt>
      <trkpt lat="48.74848" lon="2.2248">
        <ele>69.351</ele>
        <time>2017-02-07T15:24:24.218Z</time>
      </trkpt>
      <trkpt lat="48.74854" lon="2.22468">
        <ele>69.664</ele>
        <time>2017-02-07T15:24:33.750Z</time>
      </trkpt>
      <trkpt lat="48.74855" lon="2.22453">
        <ele>69.765</ele>
        <time>2017-02-07T15:24:42.959Z</time>
      </trkpt>
      <trkpt lat="48.7485" lon="2.2244">
        <ele>69.619</ele>
        <time>2017-02-07T15:24:51.436Z</time>
      </trkpt>
      <trkpt lat="48.74843" lon="2.2243">
        <ele>69.442</ele>
        <time>2017-02-07T15:24:59.901Z</time>
      </trkpt>
      <trkpt lat="48.74837" lon="2.22419">
        <ele>69.412</ele>
        <time>2017-02-07T15:25:09.044Z</time>
      </trkpt>
      <trkpt lat="48.74829" lon="2.2241">
        <ele>69.483</ele>
        <time>2017-02-07T15:25:18.154Z</time>
      </trkpt>
      <trkpt lat="48.74823" lon="2.224">
        <ele>69.561</ele>
        <time>2017-02-07T15:25:26.479Z</time>
      </trkpt>
      <trkpt lat="48.74821" lon="2.22386">
        <ele>69.61</ele>
        <time>2017-02-07T15:25:34.555Z</time>
      </trkpt>
      <trkpt lat="48.74826" lon="2.22372">
        <ele>69.645</ele>
        <time>2017-02-07T15:25:43.369Z</time>
      </trkpt>
      <trkpt lat="48.7483" lon="2.22359">
        <ele>69.67</ele>
        <time>2017-02-07T15:25:51.970Z</time>
      </trkpt>
      <trkpt lat="48.74832" lon="2.22345">
        <ele>69.659</ele>
        <time>2017-02-07T15:26:00.058Z</time>
      </trkpt>
      <trkpt lat="48.74835" lon="2.22331">
        <ele>69.624</ele>
        <time>2017-02-07T15:26:07.426Z</time>
      </trkpt>
      <trkpt lat="48.74841" lon="2.2232">
        <ele>69.602</ele>
        <time>2017-02-07T15:26:14.636Z</time>
      </trkpt>
      <trkpt lat="48.74848" lon="2.22307">
        <ele>69.666</ele>
        <time>2017-02-07T15:26:22.364Z</time>
      </trkpt>
      <trkpt lat="48.74853" lon="2.22294">
        <ele>69.849</ele>
        <time>2017-02-07T15:26:29.982Z</time>
      </trkpt>
      <trkpt lat="48.74856" lon="2.2228">
        <ele>70.058</ele>
        <time>2017-02-07T15:26:37.833Z</time>
      </trkpt>
      <trkpt lat="48.74861" lon="2.22268">
        <ele>70.229</ele>
        <time>2017-02-07T15:26:44.977Z</time>
      </trkpt>
      <trkpt lat="48.74866" lon="2.22256">
        <ele>70.489</ele>
        <time>2017-02-07T15:26:52.034Z</time>
      </trkpt>
      <trkpt lat="48.7487" lon="2.22244">
        <ele>70.901</ele>
        <time>2017-02-07T15:26:58.848Z</time>
      </trkpt>
      <trkpt lat="48.74876" lon="2.22233">
        <ele>71.267</ele>
        <time>2017-02-07T15:27:06.475Z</time>
      </trkpt>
      <trkpt lat="48.7488" lon="2.22219">
        <ele>71.264</ele>
        <time>2017-02-07T15:27:14.326Z</time>
      </trkpt>
      <trkpt lat="48.74883" lon="2.22206">
        <ele>70.857</ele>
        <time>2017-02-07T15:27:22.677Z</time>
      </trkpt>
      <trkpt lat="48.74887" lon="2.22193">
        <ele>70.394</ele>
        <time>2017-02-07T15:27:30.947Z</time>
      </trkpt>
      <trkpt lat="48.74891" lon="2.2218">
        <ele>70.322</ele>
        <time>2017-02-07T15:27:39.911Z</time>
      </trkpt>
      <trkpt lat="48.74895" lon="2.22165">
        <ele>70.698</ele>
        <time>2017-02-07T15:27:48.249Z</time>
      </trkpt>
      <trkpt lat="48.74897" lon="2.22152">
        <ele>71.286</ele>
        <time>2017-02-07T15:27:55.457Z</time>
      </trkpt>
      <trkpt lat="48.74901" lon="2.22139">
        <ele>71.816</ele>
        <time>2017-02-07T15:28:03.115Z</time>
      </trkpt>
      <trkpt lat="48.74906" lon="2.22127">
        <ele>72.118</ele>
        <time>2017-02-07T15:28:12.000Z</time>
      </trkpt>
      <trkpt lat="48.74906" lon="2.22127">
        <ele>72.17</ele>
        <time>2017-02-07T15:28:20.000Z</time>
      </trkpt>
      <trkpt lat="48.74906" lon="2.22127">
        <ele>72.117</ele>
        <time>2017-02-07T15:28:20.100Z</time>
      </trkpt>
      <trkpt lat="48.74907" lon="2.22108">
        <ele>72.065</ele>
        <time>2017-02-07T15:28:39.566Z</time>
      </trkpt>
      <trkpt lat="48.74901" lon="2.22097">
        <ele>72.223</ele>
        <time>2017-02-07T15:28:47.319Z</time>
      </trkpt>
      <trkpt lat="48.74899" lon="2.22084">
        <ele>72.685</ele>
        <time>2017-02-07T15:28:54.000Z</time>
      </trkpt>
      <trkpt lat="48.74899" lon="2.22084">
        <ele>73.174</ele>
        <time>2017-02-07T15:28:57.000Z</time>
      </trkpt>
      <trkpt lat="48.74899" lon="2.22084">
        <ele>73.381</ele>
        <time>2017-02-07T15:30:43.057Z</time>
      </trkpt>
      <trkpt lat="48.74905" lon="2.22067">
        <ele>73.183</ele>
        <time>2017-02-07T15:31:02.308Z</time>
      </trkpt>
      <trkpt lat="48.74911" lon="2.22056">
        <ele>73.159</ele>
        <time>2017-02-07T15:31:10.124Z</time>
      </trkpt>
      <trkpt lat="48.74918" lon="2.22047">
        <ele>73.342</ele>
        <time>2017-02-07T15:31:17.779Z</time>
      </trkpt>
      <trkpt lat="48.74924" lon="2.22035">
        <ele>73.627</ele>
        <time>2017-02-07T15:31:25.568Z</time>
      </trkpt>
      <trkpt lat="48.7493" lon="2.22025">
        <ele>73.828</ele>
        <time>2017-02-07T15:31:32.797Z</time>
      </trkpt>
      <trkpt lat="48.74937" lon="2.22013">
        <ele>73.897</ele>
        <time>2017-02-07T15:31:40.286Z</time>
      </trkpt>
      <trkpt lat="48.74942" lon="2.22001">
        <ele>73.883</ele>
        <time>2017-02-07T15:31:47.055Z</time>
      </trkpt>
      <trkpt lat="48.74946" lon="2.21988">
        <ele>73.787</ele>
        <time>2017-02-07T15:31:53.000Z</time>
      </trkpt>
      <trkpt lat="48.74946" lon="2.21988">
        <ele>73.613</ele>
        <time>2017-02-07T15:31:58.000Z</time>
      </trkpt>
      <trkpt lat="48.74946" lon="2.21988">
        <ele>73.473</ele>
        <time>2017-02-07T15:31:58.100Z</time>
      </trkpt>
      <trkpt lat="48.74956" lon="2.21987">
        <ele>73.446</ele>
        <time>2017-02-07T15:32:39.998Z</time>
      </trkpt>
      <trkpt lat="48.74962" lon="2.21997">
        <ele>73.482</ele>
        <time>2017-02-07T15:32:50.026Z</time>
      </trkpt>
      <trkpt lat="48.74966" lon="2.22009">
        <ele>73.558</ele>
        <time>2017-02-07T15:32:57.969Z</time>
      </trkpt>
      <trkpt lat="48.74972" lon="2.22021">
        <ele>73.751</ele>
        <time>2017-02-07T15:33:05.814Z</time>
      </trkpt>
      <trkpt lat="48.74978" lon="2.22032">
        <ele>74.076</ele>
        <time>2017-02-07T15:33:13.695Z</time>
      </trkpt>
      <trkpt lat="48.74986" lon="2.2204">
        <ele>74.42</ele>
        <time>2017-02-07T15:33:21.879Z</time>
      </trkpt>
      <trkpt lat="48.74995" lon="2.22035">
        <ele>74.729</ele>
        <time>2017-02-07T15:33:31.003Z</time>
      </trkpt>
      <trkpt lat="48.75004" lon="2.22027">
        <ele>74.99</ele>
        <time>2017-02-07T15:33:39.629Z</time>
      </trkpt>
      <trkpt lat="48.75013" lon="2.22022">
        <ele>75.134</ele>
        <time>2017-02-07T15:33:47.387Z</time>
      </trkpt>
      <trkpt lat="48.75022" lon="2.22017">
        <ele>75.157</ele>
        <time>2017-02-07T15:33:55.507Z</time>
      </trkpt>
      <trkpt lat="48.75031" lon="2.22013">
        <ele>75.086</ele>
        <time>2017-02-07T15:34:03.848Z</time>
      </trkpt>
      <trkpt lat="48.75041" lon="2.22009">
        <ele>74.988</ele>
        <time>2017-02-07T15:34:12.018Z</time>
      </trkpt>
      <trkpt lat="48.7505" lon="2.22003">
        <ele>74.928</ele>
        <time>2017-02-07T15:34:19.922Z</time>
      </trkpt>
      <trkpt lat="48.75059" lon="2.22001">
        <ele>74.83</ele>
        <time>2017-02-07T15:34:27.917Z</time>
      </trkpt>
      <trkpt lat="48.75069" lon="2.22003">
        <ele>74.576</ele>
        <time>2017-02-07T15:34:36.827Z</time>
      </trkpt>
      <trkpt lat="48.75077" lon="2.22012">
        <ele>74.233</ele>
        <time>2017-02-07T15:34:46.220Z</time>
      </trkpt>
      <trkpt lat="48.75086" lon="2.22007">
        <ele>73.828</ele>
        <time>2017-02-07T15:34:54.998Z</time>
      </trkpt>
      <trkpt lat="48.75096" lon="2.22007">
        <ele>73.34</ele>
        <time>2017-02-07T15:35:02.342Z</time>
      </trkpt>
      <trkpt lat="48.75106" lon="2.22004">
        <ele>72.912</ele>
        <time>2017-02-07T15:35:10.079Z</time>
      </trkpt>
      <trkpt lat="48.75115" lon="2.22001">
        <ele>72.71</ele>
        <time>2017-02-07T15:35:18.199Z</time>
      </trkpt>
      <trkpt lat="48.75124" lon="2.22003">
        <ele>72.678</ele>
        <time>2017-02-07T15:35:26.697Z</time>
      </trkpt>
      <trkpt lat="48.75133" lon="2.21997">
        <ele>72.694</ele>
        <time>2017-02-07T15:35:35.233Z</time>
      </trkpt>
      <trkpt lat="48.75143" lon="2.21992">
        <ele>72.636</ele>
        <time>2017-02-07T15:35:43.555Z</time>
      </trkpt>
      <trkpt lat="48.75151" lon="2.21984">
        <ele>72.484</ele>
        <time>2017-02-07T15:35:51.701Z</time>
      </trkpt>
      <trkpt lat="48.75159" lon="2.21974">
        <ele>72.294</ele>
        <time>2017-02-07T15:35:59.836Z</time>
      </trkpt>
      <trkpt lat="48.75166" lon="2.21963">
        <ele>72.11</ele>
        <time>2017-02-07T15:36:07.367Z</time>
      </trkpt>
      <trkpt lat="48.75173" lon="2.21953">
        <ele>71.914</ele>
        <time>2017-02-07T15:36:14.843Z</time>
      </trkpt>
      <trkpt lat="48.7518" lon="2.21941">
        <ele>71.673</ele>
        <time>2017-02-07T15:36:22.364Z</time>
      </trkpt>
      <trkpt lat="48.75184" lon="2.21929">
        <ele>71.28</ele>
        <time>2017-02-07T15:36:28.388Z</time>
      </trkpt>
      <trkpt lat="48.7519" lon="2.21916">
        <ele>70.741</ele>
        <time>2017-02-07T15:36:35.498Z</time>
      </trkpt>
      <trkpt lat="48.75197" lon="2.21906">
        <ele>70.292</ele>
        <time>2017-02-07T15:36:41.958Z</time>
      </trkpt>
      <trkpt lat="48.75202" lon="2.21894">
        <ele>70.108</ele>
        <time>2017-02-07T15:36:48.868Z</time>
      </trkpt>
      <trkpt lat="48.75209" lon="2.21883">
        <ele>70.101</ele>
        <time>2017-02-07T15:36:56.969Z</time>
      </trkpt>
      <trkpt lat="48.75217" lon="2.21886">
        <ele>70.162</ele>
        <time>2017-02-07T15:37:05.916Z</time>
      </trkpt>
      <trkpt lat="48.75225" lon="2.21895">
        <ele>70.259</ele>
        <time>2017-02-07T15:37:15.911Z</time>
      </trkpt>
      <trkpt lat="48.75232" lon="2.21905">
        <ele>70.596</ele>
        <time>2017-02-07T15:37:25.465Z</time>
      </trkpt>
      <trkpt lat="48.7524" lon="2.21914">
        <ele>71.256</ele>
        <time>2017-02-07T15:37:34.094Z</time>
      </trkpt>
      <trkpt lat="48.75248" lon="2.21918">
        <ele>71.906</ele>
        <time>2017-02-07T15:37:40.901Z</time>
      </trkpt>
      <trkpt lat="48.75255" lon="2.21928">
        <ele>72.321</ele>
        <time>2017-02-07T15:37:47.140Z</time>
      </trkpt>
      <trkpt lat="48.75262" lon="2.21938">
        <ele>72.597</ele>
        <time>2017-02-07T15:37:53.554Z</time>
      </trkpt>
      <trkpt lat="48.75268" lon="2.21948">
        <ele>72.82</ele>
        <time>2017-02-07T15:38:00.953Z</time>
      </trkpt>
      <trkpt lat="48.75276" lon="2.21959">
        <ele>72.99</ele>
        <time>2017-02-07T15:38:09.666Z</time>
      </trkpt>
      <trkpt lat="48.75283" lon="2.21967">
        <ele>73.217</ele>
        <time>2017-02-07T15:38:18.010Z</time>
      </trkpt>
      <trkpt lat="48.75289" lon="2.21978">
        <ele>73.619</ele>
        <time>2017-02-07T15:38:26.264Z</time>
      </trkpt>
      <trkpt lat="48.75297" lon="2.21986">
        <ele>74.449</ele>
        <time>2017-02-07T15:38:34.085Z</time>
      </trkpt>
      <trkpt lat="48.75306" lon="2.21989">
        <ele>75.89</ele>
        <time>2017-02-07T15:38:42.010Z</time>
      </trkpt>
      <trkpt lat="48.75315" lon="2.2199">
        <ele>77.514</ele>
        <time>2017-02-07T15:38:49.474Z</time>
      </trkpt>
      <trkpt lat="48.75325" lon="2.21993">
        <ele>78.694</ele>
        <time>2017-02-07T15:38:57.872Z</time>
      </trkpt>
      <trkpt lat="48.75332" lon="2.22004">
        <ele>79.393</ele>
        <time>2017-02-07T15:39:07.244Z</time>
      </trkpt>
      <trkpt lat="48.75332" lon="2.22018">
        <ele>79.791</ele>
        <time>2017-02-07T15:39:16.420Z</time>
      </trkpt>
      <trkpt lat="48.7533" lon="2.22032">
        <ele>79.972</ele>
        <time>2017-02-07T15:39:25.996Z</time>
      </trkpt>
      <trkpt lat="48.75331" lon="2.22046">
        <ele>79.961</ele>
        <time>2017-02-07T15:39:35.000Z</time>
      </trkpt>
      <trkpt lat="48.75331" lon="2.22046">
        <ele>79.864</ele>
        <time>2017-02-07T15:39:45.000Z</time>
      </trkpt>
      <trkpt lat="48.75331" lon="2.22046">
        <ele>79.799</ele>
        <time>2017-02-07T15:39:49.699Z</time>
      </trkpt>
      <trkpt lat="48.7534" lon="2.22062">
        <ele>79.775</ele>
        <time>2017-02-07T15:40:12.811Z</time>
      </trkpt>
      <trkpt lat="48.75358" lon="2.22074">
        <ele>79.769</ele>
        <time>2017-02-07T15:40:31.715Z</time>
      </trkpt>
      <trkpt lat="48.75367" lon="2.22075">
        <ele>79.898</ele>
        <time>2017-02-07T15:40:39.439Z</time>
      </trkpt>
      <trkpt lat="48.75376" lon="2.22078">
        <ele>80.236</ele>
        <time>2017-02-07T15:40:47.245Z</time>
      </trkpt>
      <trkpt lat="48.75386" lon="2.2208">
        <ele>80.02</ele>
        <time>2017-02-07T15:40:55.283Z</time>
      </trkpt>
      <trkpt lat="48.75395" lon="2.22084">
        <ele>78.72</ele>
        <time>2017-02-07T15:41:03.276Z</time>
      </trkpt>
      <trkpt lat="48.75404" lon="2.22085">
        <ele>77.43</ele>
        <time>2017-02-07T15:41:10.869Z</time>
      </trkpt>
      <trkpt lat="48.75414" lon="2.22087">
        <ele>77.292</ele>
        <time>2017-02-07T15:41:18.920Z</time>
      </trkpt>
      <trkpt lat="48.75424" lon="2.22089">
        <ele>78.03</ele>
        <time>2017-02-07T15:41:26.816Z</time>
      </trkpt>
      <trkpt lat="48.75433" lon="2.22091">
        <ele>78.914</ele>
        <time>2017-02-07T15:41:34.681Z</time>
      </trkpt>
      <trkpt lat="48.75442" lon="2.2209">
        <ele>79.513</ele>
        <time>2017-02-07T15:41:43.436Z</time>
      </trkpt>
      <trkpt lat="48.75451" lon="2.22091">
        <ele>79.751</ele>
        <time>2017-02-07T15:41:52.003Z</time>
      </trkpt>
      <trkpt lat="48.7546" lon="2.22094">
        <ele>80.005</ele>
        <time>2017-02-07T15:41:59.631Z</time>
      </trkpt>
      <trkpt lat="48.75469" lon="2.22102">
        <ele>80.586</ele>
        <time>2017-02-07T15:42:07.543Z</time>
      </trkpt>
      <trkpt lat="48.75477" lon="2.22111">
        <ele>81.154</ele>
        <time>2017-02-07T15:42:15.608Z</time>
      </trkpt>
      <trkpt lat="48.75484" lon="2.22119">
        <ele>81.322</ele>
        <time>2017-02-07T15:42:23.780Z</time>
      </trkpt>
      <trkpt lat="48.75492" lon="2.22127">
        <ele>81.188</ele>
        <time>2017-02-07T15:42:32.651Z</time>
      </trkpt>
      <trkpt lat="48.755" lon="2.22134">
        <ele>80.966</ele>
        <time>2017-02-07T15:42:40.949Z</time>
      </trkpt>
      <trkpt lat="48.75507" lon="2.22144">
        <ele>80.744</ele>
        <time>2017-02-07T15:42:48.210Z</time>
      </trkpt>
      <trkpt lat="48.75514" lon="2.22153">
        <ele>80.527</ele>
        <time>2017-02-07T15:42:55.209Z</time>
      </trkpt>
      <trkpt lat="48.75521" lon="2.22161">
        <ele>80.368</ele>
        <time>2017-02-07T15:43:01.860Z</time>
      </trkpt>
      <trkpt lat="48.75528" lon="2.22172">
        <ele>80.324</ele>
        <time>2017-02-07T15:43:09.236Z</time>
      </trkpt>
      <trkpt lat="48.75534" lon="2.22184">
        <ele>80.374</ele>
        <time>2017-02-07T15:43:17.151Z</time>
      </trkpt>
      <trkpt lat="48.75538" lon="2.22195">
        <ele>80.469</ele>
        <time>2017-02-07T15:43:25.877Z</time>
      </trkpt>
      <trkpt lat="48.75545" lon="2.22204">
        <ele>80.635</ele>
        <time>2017-02-07T15:43:35.430Z</time>
      </trkpt>
      <trkpt lat="48.75554" lon="2.222">
        <ele>81.044</ele>
        <time>2017-02-07T15:43:45.600Z</time>
      </trkpt>
      <trkpt lat="48.75559" lon="2.22188">
        <ele>81.741</ele>
        <time>2017-02-07T15:43:54.936Z</time>
      </trkpt>
      <trkpt lat="48.75561" lon="2.22174">
        <ele>82.445</ele>
        <time>2017-02-07T15:44:03.582Z</time>
      </trkpt>
      <trkpt lat="48.75561" lon="2.2216">
        <ele>83</ele>
        <time>2017-02-07T15:44:11.917Z</time>
      </trkpt>
      <trkpt lat="48.7556" lon="2.22146">
        <ele>83.478</ele>
        <time>2017-02-07T15:44:20.170Z</time>
      </trkpt>
      <trkpt lat="48.75556" lon="2.22132">
        <ele>83.882</ele>
        <time>2017-02-07T15:44:29.026Z</time>
      </trkpt>
      <trkpt lat="48.75552" lon="2.22119">
        <ele>84.226</ele>
        <time>2017-02-07T15:44:37.115Z</time>
      </trkpt>
      <trkpt lat="48.75548" lon="2.22105">
        <ele>84.591</ele>
        <time>2017-02-07T15:44:45.907Z</time>
      </trkpt>
      <trkpt lat="48.75548" lon="2.22091">
        <ele>85.012</ele>
        <time>2017-02-07T15:44:54.141Z</time>
      </trkpt>
      <trkpt lat="48.75548" lon="2.22077">
        <ele>85.423</ele>
        <time>2017-02-07T15:45:02.791Z</time>
      </trkpt>
      <trkpt lat="48.7555" lon="2.22063">
        <ele>85.74</ele>
        <time>2017-02-07T15:45:10.605Z</time>
      </trkpt>
      <trkpt lat="48.75552" lon="2.2205">
        <ele>86.032</ele>
        <time>2017-02-07T15:45:17.817Z</time>
      </trkpt>
      <trkpt lat="48.75553" lon="2.22036">
        <ele>86.399</ele>
        <time>2017-02-07T15:45:24.919Z</time>
      </trkpt>
      <trkpt lat="48.75557" lon="2.22022">
        <ele>86.785</ele>
        <time>2017-02-07T15:45:32.671Z</time>
      </trkpt>
      <trkpt lat="48.7556" lon="2.22008">
        <ele>87.099</ele>
        <time>2017-02-07T15:45:41.211Z</time>
      </trkpt>
      <trkpt lat="48.75565" lon="2.21994">
        <ele>87.467</ele>
        <time>2017-02-07T15:45:50.185Z</time>
      </trkpt>
      <trkpt lat="48.75569" lon="2.21981">
        <ele>88.076</ele>
        <time>2017-02-07T15:45:58.826Z</time>
      </trkpt>
      <trkpt lat="48.75573" lon="2.21968">
        <ele>88.782</ele>
        <time>2017-02-07T15:46:06.878Z</time>
      </trkpt>
      <trkpt lat="48.75576" lon="2.21955">
        <ele>89.357</ele>
        <time>2017-02-07T15:46:14.965Z</time>
      </trkpt>
      <trkpt lat="48.7558" lon="2.21941">
        <ele>90.025</ele>
        <time>2017-02-07T15:46:23.858Z</time>
      </trkpt>
      <trkpt lat="48.75585" lon="2.21928">
        <ele>90.961</ele>
        <time>2017-02-07T15:46:32.635Z</time>
      </trkpt>
      <trkpt lat="48.75588" lon="2.21914">
        <ele>91.896</ele>
        <time>2017-02-07T15:46:41.481Z</time>
      </trkpt>
      <trkpt lat="48.75592" lon="2.219">
        <ele>92.611</ele>
        <time>2017-02-07T15:46:50.282Z</time>
      </trkpt>
      <trkpt lat="48.75597" lon="2.21887">
        <ele>93.102</ele>
        <time>2017-02-07T15:46:59.223Z</time>
      </trkpt>
      <trkpt lat="48.75595" lon="2.21873">
        <ele>93.565</ele>
        <time>2017-02-07T15:47:08.761Z</time>
      </trkpt>
      <trkpt lat="48.75588" lon="2.21863">
        <ele>94.219</ele>
        <time>2017-02-07T15:47:17.866Z</time>
      </trkpt>
      <trkpt lat="48.75579" lon="2.21859">
        <ele>94.881</ele>
        <time>2017-02-07T15:47:27.573Z</time>
      </trkpt>
      <trkpt lat="48.75569" lon="2.21855">
        <ele>95.288</ele>
        <time>2017-02-07T15:47:37.819Z</time>
      </trkpt>
      <trkpt lat="48.75561" lon="2.21851">
        <ele>95.508</ele>
        <time>2017-02-07T15:47:46.226Z</time>
      </trkpt>
      <trkpt lat="48.75552" lon="2.21844">
        <ele>95.674</ele>
        <time>2017-02-07T15:47:54.517Z</time>
      </trkpt>
      <trkpt lat="48.75543" lon="2.21839">
        <ele>95.897</ele>
        <time>2017-02-07T15:48:02.790Z</time>
      </trkpt>
      <trkpt lat="48.75535" lon="2.21828">
        <ele>96.239</ele>
        <time>2017-02-07T15:48:10.840Z</time>
      </trkpt>
      <trkpt lat="48.75527" lon="2.21822">
        <ele>96.601</ele>
        <time>2017-02-07T15:48:18.312Z</time>
      </trkpt>
      <trkpt lat="48.75521" lon="2.21813">
        <ele>96.828</ele>
        <time>2017-02-07T15:48:26.112Z</time>
      </trkpt>
      <trkpt lat="48.75513" lon="2.21805">
        <ele>96.907</ele>
        <time>2017-02-07T15:48:34.769Z</time>
      </trkpt>
      <trkpt lat="48.75505" lon="2.21798">
        <ele>97.185</ele>
        <time>2017-02-07T15:48:42.911Z</time>
      </trkpt>
      <trkpt lat="48.75496" lon="2.21793">
        <ele>97.89</ele>
        <time>2017-02-07T15:48:51.050Z</time>
      </trkpt>
      <trkpt lat="48.75487" lon="2.21786">
        <ele>98.626</ele>
        <time>2017-02-07T15:48:59.380Z</time>
      </trkpt>
      <trkpt lat="48.75478" lon="2.21781">
        <ele>98.961</ele>
        <time>2017-02-07T15:49:08.519Z</time>
      </trkpt>
      <trkpt lat="48.75471" lon="2.21772">
        <ele>98.939</ele>
        <time>2017-02-07T15:49:17.184Z</time>
      </trkpt>
      <trkpt lat="48.75466" lon="2.21761">
        <ele>98.785</ele>
        <time>2017-02-07T15:49:26.048Z</time>
      </trkpt>
      <trkpt lat="48.75457" lon="2.21754">
        <ele>98.67</ele>
        <time>2017-02-07T15:49:35.690Z</time>
      </trkpt>
      <trkpt lat="48.75449" lon="2.21746">
        <ele>98.536</ele>
        <time>2017-02-07T15:49:44.999Z</time>
      </trkpt>
      <trkpt lat="48.75449" lon="2.21746">
        <ele>98.321</ele>
        <time>2017-02-07T15:49:51.999Z</time>
      </trkpt>
      <trkpt lat="48.75449" lon="2.21746">
        <ele>98.149</ele>
        <time>2017-02-07T15:52:43.102Z</time>
      </trkpt>
      <trkpt lat="48.75449" lon="2.21746">
        <ele>98.154</ele>
        <time>2017-02-07T15:53:00.999Z</time>
      </trkpt>
      <trkpt lat="48.75449" lon="2.21746">
        <ele>98.171</ele>
        <time>2017-02-07T15:53:30.050Z</time>
      </trkpt>
      <trkpt lat="48.75441" lon="2.21738">
        <ele>98.07</ele>
        <time>2017-02-07T15:53:40.710Z</time>
      </trkpt>
      <trkpt lat="48.75434" lon="2.21727">
        <ele>98.463</ele>
        <time>2017-02-07T15:53:47.000Z</time>
      </trkpt>
      <trkpt lat="48.75434" lon="2.21727">
        <ele>99.561</ele>
        <time>2017-02-07T15:53:56.000Z</time>
      </trkpt>
      <trkpt lat="48.75434" lon="2.21727">
        <ele>100.47</ele>
        <time>2017-02-07T15:53:56.100Z</time>
      </trkpt>
      <trkpt lat="48.75437" lon="2.2171">
        <ele>100.414</ele>
        <time>2017-02-07T15:54:12.529Z</time>
      </trkpt>
      <trkpt lat="48.75443" lon="2.21699">
        <ele>100.194</ele>
        <time>2017-02-07T15:54:22.438Z</time>
      </trkpt>
      <trkpt lat="48.75445" lon="2.21684">
        <ele>100.711</ele>
        <time>2017-02-07T15:54:31.302Z</time>
      </trkpt>
      <trkpt lat="48.75446" lon="2.2167">
        <ele>101.639</ele>
        <time>2017-02-07T15:54:38.793Z</time>
      </trkpt>
      <trkpt lat="48.75452" lon="2.21658">
        <ele>102.309</ele>
        <time>2017-02-07T15:54:46.622Z</time>
      </trkpt>
      <trkpt lat="48.75449" lon="2.21644">
        <ele>102.57</ele>
        <time>2017-02-07T15:54:55.539Z</time>
      </trkpt>
      <trkpt lat="48.75448" lon="2.21629">
        <ele>102.538</ele>
        <time>2017-02-07T15:55:05.986Z</time>
      </trkpt>
      <trkpt lat="48.75447" lon="2.21615">
        <ele>102.038</ele>
        <time>2017-02-07T15:55:16.948Z</time>
      </trkpt>
      <trkpt lat="48.75442" lon="2.21603">
        <ele>100.567</ele>
        <time>2017-02-07T15:55:27.083Z</time>
      </trkpt>
      <trkpt lat="48.75435" lon="2.21594">
        <ele>98.181</ele>
        <time>2017-02-07T15:55:36.660Z</time>
      </trkpt>
      <trkpt lat="48.75429" lon="2.21583">
        <ele>95.587</ele>
        <time>2017-02-07T15:55:46.840Z</time>
      </trkpt>
      <trkpt lat="48.75422" lon="2.21575">
        <ele>93.277</ele>
        <time>2017-02-07T15:55:59.459Z</time>
      </trkpt>
      <trkpt lat="48.75414" lon="2.21581">
        <ele>91.523</ele>
        <time>2017-02-07T15:56:12.000Z</time>
      </trkpt>
      <trkpt lat="48.75414" lon="2.21581">
        <ele>90.606</ele>
        <time>2017-02-07T15:56:20.000Z</time>
      </trkpt>
      <trkpt lat="48.75414" lon="2.21581">
        <ele>90.404</ele>
        <time>2017-02-07T15:56:20.684Z</time>
      </trkpt>
      <trkpt lat="48.75404" lon="2.2159">
        <ele>90.459</ele>
        <time>2017-02-07T15:56:40.644Z</time>
      </trkpt>
      <trkpt lat="48.75395" lon="2.21592">
        <ele>90.355</ele>
        <time>2017-02-07T15:56:51.417Z</time>
      </trkpt>
      <trkpt lat="48.75385" lon="2.21594">
        <ele>89.904</ele>
        <time>2017-02-07T15:57:00.673Z</time>
      </trkpt>
      <trkpt lat="48.75375" lon="2.21595">
        <ele>89.115</ele>
        <time>2017-02-07T15:57:07.520Z</time>
      </trkpt>
      <trkpt lat="48.75365" lon="2.21596">
        <ele>88.185</ele>
        <time>2017-02-07T15:57:14.313Z</time>
      </trkpt>
      <trkpt lat="48.75355" lon="2.21596">
        <ele>87.246</ele>
        <time>2017-02-07T15:57:22.006Z</time>
      </trkpt>
      <trkpt lat="48.75346" lon="2.21597">
        <ele>86.188</ele>
        <time>2017-02-07T15:57:29.393Z</time>
      </trkpt>
      <trkpt lat="48.75338" lon="2.21594">
        <ele>84.978</ele>
        <time>2017-02-07T15:57:36.868Z</time>
      </trkpt>
      <trkpt lat="48.75329" lon="2.21588">
        <ele>83.836</ele>
        <time>2017-02-07T15:57:44.607Z</time>
      </trkpt>
      <trkpt lat="48.75322" lon="2.2158">
        <ele>82.872</ele>
        <time>2017-02-07T15:57:51.879Z</time>
      </trkpt>
      <trkpt lat="48.75314" lon="2.21572">
        <ele>82.061</ele>
        <time>2017-02-07T15:57:59.383Z</time>
      </trkpt>
      <trkpt lat="48.75307" lon="2.21563">
        <ele>81.352</ele>
        <time>2017-02-07T15:58:06.804Z</time>
      </trkpt>
      <trkpt lat="48.753" lon="2.21554">
        <ele>80.753</ele>
        <time>2017-02-07T15:58:14.593Z</time>
      </trkpt>
      <trkpt lat="48.75293" lon="2.21544">
        <ele>80.252</ele>
        <time>2017-02-07T15:58:22.215Z</time>
      </trkpt>
      <trkpt lat="48.75286" lon="2.21535">
        <ele>79.673</ele>
        <time>2017-02-07T15:58:29.590Z</time>
      </trkpt>
      <trkpt lat="48.75278" lon="2.21527">
        <ele>78.973</ele>
        <time>2017-02-07T15:58:36.820Z</time>
      </trkpt>
      <trkpt lat="48.7527" lon="2.21518">
        <ele>78.353</ele>
        <time>2017-02-07T15:58:44.740Z</time>
      </trkpt>
      <trkpt lat="48.75263" lon="2.21509">
        <ele>77.841</ele>
        <time>2017-02-07T15:58:51.841Z</time>
      </trkpt>
      <trkpt lat="48.75256" lon="2.21501">
        <ele>77.361</ele>
        <time>2017-02-07T15:58:59.876Z</time>
      </trkpt>
      <trkpt lat="48.75246" lon="2.21506">
        <ele>76.958</ele>
        <time>2017-02-07T15:59:09.267Z</time>
      </trkpt>
      <trkpt lat="48.75238" lon="2.21513">
        <ele>76.652</ele>
        <time>2017-02-07T15:59:17.223Z</time>
      </trkpt>
      <trkpt lat="48.75229" lon="2.21515">
        <ele>76.424</ele>
        <time>2017-02-07T15:59:24.563Z</time>
      </trkpt>
      <trkpt lat="48.75223" lon="2.21527">
        <ele>76.338</ele>
        <time>2017-02-07T15:59:33.143Z</time>
      </trkpt>
      <trkpt lat="48.75217" lon="2.21539">
        <ele>76.414</ele>
        <time>2017-02-07T15:59:43.226Z</time>
      </trkpt>
      <trkpt lat="48.75211" lon="2.2155">
        <ele>76.706</ele>
        <time>2017-02-07T15:59:52.684Z</time>
      </trkpt>
      <trkpt lat="48.75205" lon="2.2156">
        <ele>77.26</ele>
        <time>2017-02-07T16:00:01.448Z</time>
      </trkpt>
      <trkpt lat="48.75201" lon="2.21573">
        <ele>77.922</ele>
        <time>2017-02-07T16:00:09.678Z</time>
      </trkpt>
      <trkpt lat="48.75194" lon="2.21583">
        <ele>78.481</ele>
        <time>2017-02-07T16:00:18.006Z</time>
      </trkpt>
      <trkpt lat="48.75185" lon="2.21591">
        <ele>78.881</ele>
        <time>2017-02-07T16:00:26.972Z</time>
      </trkpt>
      <trkpt lat="48.75177" lon="2.21599">
        <ele>79.117</ele>
        <time>2017-02-07T16:00:35.551Z</time>
      </trkpt>
      <trkpt lat="48.7517" lon="2.21607">
        <ele>79.201</ele>
        <time>2017-02-07T16:00:42.803Z</time>
      </trkpt>
      <trkpt lat="48.75161" lon="2.21604">
        <ele>79.091</ele>
        <time>2017-02-07T16:00:50.369Z</time>
      </trkpt>
      <trkpt lat="48.75152" lon="2.21608">
        <ele>78.755</ele>
        <time>2017-02-07T16:00:59.421Z</time>
      </trkpt>
      <trkpt lat="48.75143" lon="2.21615">
        <ele>78.332</ele>
        <time>2017-02-07T16:01:08.000Z</time>
      </trkpt>
      <trkpt lat="48.75135" lon="2.21621">
        <ele>77.966</ele>
        <time>2017-02-07T16:01:17.000Z</time>
      </trkpt>
    </trkseg>
  </trk>
</gpx>